<?xml version="1.0" encoding="UTF-8" standalone="no" ?>
<gpx xmlns="http://www.topografix.com/GPX/1/1" xmlns:xsi="http://www.w3.org/2001/XMLSchema-instance" xsi:schemaLocation="http://www.topografix.com/GPX/1/1 http://www.topografix.com/GPX/1/1/gpx.xsd" version="1.1" creator="VisuGPX - https://www.visugpx.com">
  <metadata>
    <name>Hardangervidda 2019</name>
  </metadata>
  <trk>
    <name><![CDATA[2019-04-08]]></name>
    <trkseg>
      <trkpt lat="60.59793" lon="7.50795">
        <ele>1239.76</ele>
        <time>2019-04-08T11:39:03Z</time>
      </trkpt>
      <trkpt lat="60.59794" lon="7.50796">
        <ele>1239.76</ele>
        <time>2019-04-08T11:39:04Z</time>
      </trkpt>
      <trkpt lat="60.59792" lon="7.50797">
        <ele>1238.8</ele>
        <time>2019-04-08T11:39:15Z</time>
      </trkpt>
      <trkpt lat="60.59791" lon="7.50797">
        <ele>1238.8</ele>
        <time>2019-04-08T11:39:19Z</time>
      </trkpt>
      <trkpt lat="60.59764" lon="7.50776">
        <ele>1238.32</ele>
        <time>2019-04-08T11:39:37Z</time>
      </trkpt>
      <trkpt lat="60.59746" lon="7.50767">
        <ele>1237.83</ele>
        <time>2019-04-08T11:39:53Z</time>
      </trkpt>
      <trkpt lat="60.59737" lon="7.50767">
        <ele>1235.91</ele>
        <time>2019-04-08T11:40:04Z</time>
      </trkpt>
      <trkpt lat="60.59725" lon="7.50761">
        <ele>1232.55</ele>
        <time>2019-04-08T11:40:15Z</time>
      </trkpt>
      <trkpt lat="60.59723" lon="7.5076">
        <ele>1232.55</ele>
        <time>2019-04-08T11:40:16Z</time>
      </trkpt>
      <trkpt lat="60.59708" lon="7.50744">
        <ele>1230.62</ele>
        <time>2019-04-08T11:40:28Z</time>
      </trkpt>
      <trkpt lat="60.59686" lon="7.50726">
        <ele>1230.62</ele>
        <time>2019-04-08T11:40:44Z</time>
      </trkpt>
      <trkpt lat="60.59663" lon="7.50708">
        <ele>1228.7</ele>
        <time>2019-04-08T11:40:58Z</time>
      </trkpt>
      <trkpt lat="60.59647" lon="7.50693">
        <ele>1227.74</ele>
        <time>2019-04-08T11:41:13Z</time>
      </trkpt>
      <trkpt lat="60.5963" lon="7.50682">
        <ele>1227.74</ele>
        <time>2019-04-08T11:41:28Z</time>
      </trkpt>
      <trkpt lat="60.59622" lon="7.50676">
        <ele>1227.74</ele>
        <time>2019-04-08T11:41:35Z</time>
      </trkpt>
      <trkpt lat="60.59601" lon="7.50654">
        <ele>1226.78</ele>
        <time>2019-04-08T11:41:55Z</time>
      </trkpt>
      <trkpt lat="60.59588" lon="7.50642">
        <ele>1228.22</ele>
        <time>2019-04-08T11:42:10Z</time>
      </trkpt>
      <trkpt lat="60.59588" lon="7.50643">
        <ele>1224.38</ele>
        <time>2019-04-08T11:42:16Z</time>
      </trkpt>
      <trkpt lat="60.59589" lon="7.50644">
        <ele>1226.78</ele>
        <time>2019-04-08T11:42:17Z</time>
      </trkpt>
      <trkpt lat="60.59589" lon="7.50644">
        <ele>1231.59</ele>
        <time>2019-04-08T11:42:20Z</time>
      </trkpt>
      <trkpt lat="60.59589" lon="7.50643">
        <ele>1227.26</ele>
        <time>2019-04-08T11:42:21Z</time>
      </trkpt>
      <trkpt lat="60.5957" lon="7.50627">
        <ele>1227.26</ele>
        <time>2019-04-08T11:42:33Z</time>
      </trkpt>
      <trkpt lat="60.5955" lon="7.50618">
        <ele>1226.3</ele>
        <time>2019-04-08T11:42:49Z</time>
      </trkpt>
      <trkpt lat="60.59534" lon="7.50603">
        <ele>1226.3</ele>
        <time>2019-04-08T11:43:04Z</time>
      </trkpt>
      <trkpt lat="60.59518" lon="7.50588">
        <ele>1226.3</ele>
        <time>2019-04-08T11:43:20Z</time>
      </trkpt>
      <trkpt lat="60.59501" lon="7.50574">
        <ele>1227.26</ele>
        <time>2019-04-08T11:43:37Z</time>
      </trkpt>
      <trkpt lat="60.59488" lon="7.50559">
        <ele>1227.26</ele>
        <time>2019-04-08T11:43:52Z</time>
      </trkpt>
      <trkpt lat="60.59471" lon="7.50544">
        <ele>1226.78</ele>
        <time>2019-04-08T11:44:09Z</time>
      </trkpt>
      <trkpt lat="60.59465" lon="7.50539">
        <ele>1225.82</ele>
        <time>2019-04-08T11:44:15Z</time>
      </trkpt>
      <trkpt lat="60.59448" lon="7.50526">
        <ele>1225.34</ele>
        <time>2019-04-08T11:44:32Z</time>
      </trkpt>
      <trkpt lat="60.59446" lon="7.50523">
        <ele>1225.34</ele>
        <time>2019-04-08T11:44:35Z</time>
      </trkpt>
      <trkpt lat="60.59426" lon="7.50511">
        <ele>1225.34</ele>
        <time>2019-04-08T11:44:53Z</time>
      </trkpt>
      <trkpt lat="60.59411" lon="7.505">
        <ele>1225.34</ele>
        <time>2019-04-08T11:45:09Z</time>
      </trkpt>
      <trkpt lat="60.59406" lon="7.50496">
        <ele>1225.34</ele>
        <time>2019-04-08T11:45:14Z</time>
      </trkpt>
      <trkpt lat="60.59386" lon="7.50478">
        <ele>1224.86</ele>
        <time>2019-04-08T11:45:33Z</time>
      </trkpt>
      <trkpt lat="60.59382" lon="7.50474">
        <ele>1224.86</ele>
        <time>2019-04-08T11:45:37Z</time>
      </trkpt>
      <trkpt lat="60.59366" lon="7.50459">
        <ele>1224.86</ele>
        <time>2019-04-08T11:45:54Z</time>
      </trkpt>
      <trkpt lat="60.59348" lon="7.50443">
        <ele>1224.86</ele>
        <time>2019-04-08T11:46:12Z</time>
      </trkpt>
      <trkpt lat="60.59332" lon="7.50431">
        <ele>1224.86</ele>
        <time>2019-04-08T11:46:28Z</time>
      </trkpt>
      <trkpt lat="60.59318" lon="7.50418">
        <ele>1226.3</ele>
        <time>2019-04-08T11:46:41Z</time>
      </trkpt>
      <trkpt lat="60.59304" lon="7.50409">
        <ele>1226.78</ele>
        <time>2019-04-08T11:46:58Z</time>
      </trkpt>
      <trkpt lat="60.59291" lon="7.50404">
        <ele>1227.74</ele>
        <time>2019-04-08T11:47:13Z</time>
      </trkpt>
      <trkpt lat="60.59275" lon="7.50399">
        <ele>1230.14</ele>
        <time>2019-04-08T11:47:31Z</time>
      </trkpt>
      <trkpt lat="60.59262" lon="7.50387">
        <ele>1231.11</ele>
        <time>2019-04-08T11:47:48Z</time>
      </trkpt>
      <trkpt lat="60.59247" lon="7.50376">
        <ele>1231.11</ele>
        <time>2019-04-08T11:48:03Z</time>
      </trkpt>
      <trkpt lat="60.59243" lon="7.50372">
        <ele>1231.11</ele>
        <time>2019-04-08T11:48:23Z</time>
      </trkpt>
      <trkpt lat="60.59243" lon="7.50373">
        <ele>1231.11</ele>
        <time>2019-04-08T11:48:55Z</time>
      </trkpt>
      <trkpt lat="60.59241" lon="7.50372">
        <ele>1230.62</ele>
        <time>2019-04-08T11:49:19Z</time>
      </trkpt>
      <trkpt lat="60.59242" lon="7.50373">
        <ele>1230.62</ele>
        <time>2019-04-08T11:49:44Z</time>
      </trkpt>
      <trkpt lat="60.5924" lon="7.50373">
        <ele>1230.62</ele>
        <time>2019-04-08T11:50:03Z</time>
      </trkpt>
      <trkpt lat="60.5924" lon="7.50374">
        <ele>1230.62</ele>
        <time>2019-04-08T11:50:26Z</time>
      </trkpt>
      <trkpt lat="60.59242" lon="7.50372">
        <ele>1230.14</ele>
        <time>2019-04-08T11:50:52Z</time>
      </trkpt>
      <trkpt lat="60.59238" lon="7.50368">
        <ele>1230.14</ele>
        <time>2019-04-08T11:51:09Z</time>
      </trkpt>
      <trkpt lat="60.59224" lon="7.50356">
        <ele>1230.62</ele>
        <time>2019-04-08T11:51:28Z</time>
      </trkpt>
      <trkpt lat="60.59207" lon="7.50344">
        <ele>1231.11</ele>
        <time>2019-04-08T11:51:46Z</time>
      </trkpt>
      <trkpt lat="60.59189" lon="7.50331">
        <ele>1231.59</ele>
        <time>2019-04-08T11:52:05Z</time>
      </trkpt>
      <trkpt lat="60.59173" lon="7.50323">
        <ele>1232.55</ele>
        <time>2019-04-08T11:52:21Z</time>
      </trkpt>
      <trkpt lat="60.59155" lon="7.50312">
        <ele>1233.99</ele>
        <time>2019-04-08T11:52:40Z</time>
      </trkpt>
      <trkpt lat="60.59135" lon="7.50308">
        <ele>1234.95</ele>
        <time>2019-04-08T11:52:58Z</time>
      </trkpt>
      <trkpt lat="60.59117" lon="7.503">
        <ele>1234.47</ele>
        <time>2019-04-08T11:53:14Z</time>
      </trkpt>
      <trkpt lat="60.59098" lon="7.50291">
        <ele>1234.95</ele>
        <time>2019-04-08T11:53:31Z</time>
      </trkpt>
      <trkpt lat="60.5908" lon="7.50284">
        <ele>1235.43</ele>
        <time>2019-04-08T11:53:48Z</time>
      </trkpt>
      <trkpt lat="60.59064" lon="7.50277">
        <ele>1236.39</ele>
        <time>2019-04-08T11:54:03Z</time>
      </trkpt>
      <trkpt lat="60.59046" lon="7.50271">
        <ele>1237.35</ele>
        <time>2019-04-08T11:54:20Z</time>
      </trkpt>
      <trkpt lat="60.59029" lon="7.50256">
        <ele>1238.32</ele>
        <time>2019-04-08T11:54:38Z</time>
      </trkpt>
      <trkpt lat="60.59013" lon="7.50241">
        <ele>1239.76</ele>
        <time>2019-04-08T11:54:55Z</time>
      </trkpt>
      <trkpt lat="60.58991" lon="7.50222">
        <ele>1241.2</ele>
        <time>2019-04-08T11:55:16Z</time>
      </trkpt>
      <trkpt lat="60.58972" lon="7.50207">
        <ele>1243.6</ele>
        <time>2019-04-08T11:55:36Z</time>
      </trkpt>
      <trkpt lat="60.58956" lon="7.50192">
        <ele>1246.01</ele>
        <time>2019-04-08T11:55:54Z</time>
      </trkpt>
      <trkpt lat="60.5894" lon="7.50174">
        <ele>1248.89</ele>
        <time>2019-04-08T11:56:13Z</time>
      </trkpt>
      <trkpt lat="60.58925" lon="7.50155">
        <ele>1251.29</ele>
        <time>2019-04-08T11:56:29Z</time>
      </trkpt>
      <trkpt lat="60.58909" lon="7.50135">
        <ele>1253.7</ele>
        <time>2019-04-08T11:56:49Z</time>
      </trkpt>
      <trkpt lat="60.58895" lon="7.50115">
        <ele>1256.58</ele>
        <time>2019-04-08T11:57:06Z</time>
      </trkpt>
      <trkpt lat="60.58881" lon="7.50094">
        <ele>1258.5</ele>
        <time>2019-04-08T11:57:24Z</time>
      </trkpt>
      <trkpt lat="60.58866" lon="7.50074">
        <ele>1260.91</ele>
        <time>2019-04-08T11:57:41Z</time>
      </trkpt>
      <trkpt lat="60.58854" lon="7.50059">
        <ele>1263.31</ele>
        <time>2019-04-08T11:57:57Z</time>
      </trkpt>
      <trkpt lat="60.58838" lon="7.50042">
        <ele>1264.75</ele>
        <time>2019-04-08T11:58:16Z</time>
      </trkpt>
      <trkpt lat="60.58832" lon="7.50039">
        <ele>1266.19</ele>
        <time>2019-04-08T11:58:29Z</time>
      </trkpt>
      <trkpt lat="60.58815" lon="7.5003">
        <ele>1267.16</ele>
        <time>2019-04-08T11:58:47Z</time>
      </trkpt>
      <trkpt lat="60.58797" lon="7.50024">
        <ele>1269.08</ele>
        <time>2019-04-08T11:59:05Z</time>
      </trkpt>
      <trkpt lat="60.58781" lon="7.50017">
        <ele>1270.52</ele>
        <time>2019-04-08T11:59:23Z</time>
      </trkpt>
      <trkpt lat="60.58766" lon="7.50009">
        <ele>1271</ele>
        <time>2019-04-08T11:59:39Z</time>
      </trkpt>
      <trkpt lat="60.58756" lon="7.5">
        <ele>1271.48</ele>
        <time>2019-04-08T11:59:54Z</time>
      </trkpt>
      <trkpt lat="60.58752" lon="7.49998">
        <ele>1271.48</ele>
        <time>2019-04-08T12:00:12Z</time>
      </trkpt>
      <trkpt lat="60.58753" lon="7.49999">
        <ele>1271</ele>
        <time>2019-04-08T12:00:42Z</time>
      </trkpt>
      <trkpt lat="60.58752" lon="7.49997">
        <ele>1271</ele>
        <time>2019-04-08T12:01:10Z</time>
      </trkpt>
      <trkpt lat="60.5874" lon="7.49992">
        <ele>1269.56</ele>
        <time>2019-04-08T12:01:17Z</time>
      </trkpt>
      <trkpt lat="60.58719" lon="7.49984">
        <ele>1267.64</ele>
        <time>2019-04-08T12:01:32Z</time>
      </trkpt>
      <trkpt lat="60.58695" lon="7.49977">
        <ele>1264.27</ele>
        <time>2019-04-08T12:01:44Z</time>
      </trkpt>
      <trkpt lat="60.58672" lon="7.49961">
        <ele>1261.87</ele>
        <time>2019-04-08T12:01:59Z</time>
      </trkpt>
      <trkpt lat="60.58652" lon="7.49945">
        <ele>1261.39</ele>
        <time>2019-04-08T12:02:16Z</time>
      </trkpt>
      <trkpt lat="60.58634" lon="7.4992">
        <ele>1260.43</ele>
        <time>2019-04-08T12:02:34Z</time>
      </trkpt>
      <trkpt lat="60.5862" lon="7.49898">
        <ele>1258.98</ele>
        <time>2019-04-08T12:02:48Z</time>
      </trkpt>
      <trkpt lat="60.58598" lon="7.49866">
        <ele>1256.1</ele>
        <time>2019-04-08T12:03:03Z</time>
      </trkpt>
      <trkpt lat="60.58596" lon="7.49864">
        <ele>1256.1</ele>
        <time>2019-04-08T12:03:04Z</time>
      </trkpt>
      <trkpt lat="60.5858" lon="7.4985">
        <ele>1255.14</ele>
        <time>2019-04-08T12:03:19Z</time>
      </trkpt>
      <trkpt lat="60.58566" lon="7.49846">
        <ele>1257.54</ele>
        <time>2019-04-08T12:03:34Z</time>
      </trkpt>
      <trkpt lat="60.58552" lon="7.49848">
        <ele>1260.43</ele>
        <time>2019-04-08T12:03:51Z</time>
      </trkpt>
      <trkpt lat="60.58538" lon="7.49845">
        <ele>1263.31</ele>
        <time>2019-04-08T12:04:08Z</time>
      </trkpt>
      <trkpt lat="60.58522" lon="7.49835">
        <ele>1264.27</ele>
        <time>2019-04-08T12:04:25Z</time>
      </trkpt>
      <trkpt lat="60.58506" lon="7.4983">
        <ele>1265.23</ele>
        <time>2019-04-08T12:04:42Z</time>
      </trkpt>
      <trkpt lat="60.58491" lon="7.49835">
        <ele>1265.23</ele>
        <time>2019-04-08T12:04:57Z</time>
      </trkpt>
      <trkpt lat="60.58475" lon="7.49835">
        <ele>1263.79</ele>
        <time>2019-04-08T12:05:12Z</time>
      </trkpt>
      <trkpt lat="60.58449" lon="7.49831">
        <ele>1263.31</ele>
        <time>2019-04-08T12:05:33Z</time>
      </trkpt>
      <trkpt lat="60.5843" lon="7.49832">
        <ele>1262.35</ele>
        <time>2019-04-08T12:05:49Z</time>
      </trkpt>
      <trkpt lat="60.58417" lon="7.49828">
        <ele>1264.27</ele>
        <time>2019-04-08T12:06:03Z</time>
      </trkpt>
      <trkpt lat="60.58401" lon="7.49821">
        <ele>1266.67</ele>
        <time>2019-04-08T12:06:21Z</time>
      </trkpt>
      <trkpt lat="60.58386" lon="7.49813">
        <ele>1267.64</ele>
        <time>2019-04-08T12:06:37Z</time>
      </trkpt>
      <trkpt lat="60.5838" lon="7.4981">
        <ele>1269.08</ele>
        <time>2019-04-08T12:06:51Z</time>
      </trkpt>
      <trkpt lat="60.58365" lon="7.49804">
        <ele>1269.56</ele>
        <time>2019-04-08T12:07:08Z</time>
      </trkpt>
      <trkpt lat="60.58363" lon="7.49806">
        <ele>1269.56</ele>
        <time>2019-04-08T12:07:10Z</time>
      </trkpt>
      <trkpt lat="60.58362" lon="7.49807">
        <ele>1269.56</ele>
        <time>2019-04-08T12:07:11Z</time>
      </trkpt>
      <trkpt lat="60.58361" lon="7.49809">
        <ele>1269.56</ele>
        <time>2019-04-08T12:07:12Z</time>
      </trkpt>
      <trkpt lat="60.58342" lon="7.49813">
        <ele>1269.56</ele>
        <time>2019-04-08T12:07:28Z</time>
      </trkpt>
      <trkpt lat="60.58325" lon="7.49818">
        <ele>1270.52</ele>
        <time>2019-04-08T12:07:44Z</time>
      </trkpt>
      <trkpt lat="60.5831" lon="7.49823">
        <ele>1271.96</ele>
        <time>2019-04-08T12:08:01Z</time>
      </trkpt>
      <trkpt lat="60.5829" lon="7.49826">
        <ele>1273.4</ele>
        <time>2019-04-08T12:08:21Z</time>
      </trkpt>
      <trkpt lat="60.58273" lon="7.49829">
        <ele>1276.29</ele>
        <time>2019-04-08T12:08:39Z</time>
      </trkpt>
      <trkpt lat="60.58261" lon="7.49831">
        <ele>1278.69</ele>
        <time>2019-04-08T12:08:54Z</time>
      </trkpt>
      <trkpt lat="60.58247" lon="7.49834">
        <ele>1281.09</ele>
        <time>2019-04-08T12:09:10Z</time>
      </trkpt>
      <trkpt lat="60.58231" lon="7.49838">
        <ele>1283.5</ele>
        <time>2019-04-08T12:09:28Z</time>
      </trkpt>
      <trkpt lat="60.58214" lon="7.49843">
        <ele>1285.42</ele>
        <time>2019-04-08T12:09:46Z</time>
      </trkpt>
      <trkpt lat="60.58197" lon="7.49851">
        <ele>1286.86</ele>
        <time>2019-04-08T12:10:04Z</time>
      </trkpt>
      <trkpt lat="60.58179" lon="7.49859">
        <ele>1288.78</ele>
        <time>2019-04-08T12:10:23Z</time>
      </trkpt>
      <trkpt lat="60.58161" lon="7.49863">
        <ele>1290.23</ele>
        <time>2019-04-08T12:10:43Z</time>
      </trkpt>
      <trkpt lat="60.58147" lon="7.49868">
        <ele>1292.15</ele>
        <time>2019-04-08T12:10:59Z</time>
      </trkpt>
      <trkpt lat="60.58131" lon="7.49876">
        <ele>1293.11</ele>
        <time>2019-04-08T12:11:15Z</time>
      </trkpt>
      <trkpt lat="60.58114" lon="7.49878">
        <ele>1295.03</ele>
        <time>2019-04-08T12:11:33Z</time>
      </trkpt>
      <trkpt lat="60.58102" lon="7.49881">
        <ele>1297.92</ele>
        <time>2019-04-08T12:11:49Z</time>
      </trkpt>
      <trkpt lat="60.5809" lon="7.49883">
        <ele>1301.28</ele>
        <time>2019-04-08T12:12:03Z</time>
      </trkpt>
      <trkpt lat="60.58076" lon="7.49886">
        <ele>1304.65</ele>
        <time>2019-04-08T12:12:21Z</time>
      </trkpt>
      <trkpt lat="60.58061" lon="7.4989">
        <ele>1308.01</ele>
        <time>2019-04-08T12:12:40Z</time>
      </trkpt>
      <trkpt lat="60.58054" lon="7.49884">
        <ele>1309.45</ele>
        <time>2019-04-08T12:12:49Z</time>
      </trkpt>
      <trkpt lat="60.58039" lon="7.4987">
        <ele>1312.34</ele>
        <time>2019-04-08T12:13:08Z</time>
      </trkpt>
      <trkpt lat="60.58026" lon="7.49852">
        <ele>1313.78</ele>
        <time>2019-04-08T12:13:26Z</time>
      </trkpt>
      <trkpt lat="60.58013" lon="7.49828">
        <ele>1314.74</ele>
        <time>2019-04-08T12:13:43Z</time>
      </trkpt>
      <trkpt lat="60.58008" lon="7.49813">
        <ele>1314.74</ele>
        <time>2019-04-08T12:13:51Z</time>
      </trkpt>
      <trkpt lat="60.57998" lon="7.4978">
        <ele>1314.26</ele>
        <time>2019-04-08T12:14:06Z</time>
      </trkpt>
      <trkpt lat="60.5799" lon="7.49757">
        <ele>1313.3</ele>
        <time>2019-04-08T12:14:16Z</time>
      </trkpt>
      <trkpt lat="60.57984" lon="7.49745">
        <ele>1312.82</ele>
        <time>2019-04-08T12:14:29Z</time>
      </trkpt>
      <trkpt lat="60.57973" lon="7.49725">
        <ele>1313.3</ele>
        <time>2019-04-08T12:14:42Z</time>
      </trkpt>
      <trkpt lat="60.5796" lon="7.49706">
        <ele>1313.78</ele>
        <time>2019-04-08T12:14:56Z</time>
      </trkpt>
      <trkpt lat="60.57946" lon="7.49685">
        <ele>1316.18</ele>
        <time>2019-04-08T12:15:14Z</time>
      </trkpt>
      <trkpt lat="60.57931" lon="7.49664">
        <ele>1318.59</ele>
        <time>2019-04-08T12:15:31Z</time>
      </trkpt>
      <trkpt lat="60.57917" lon="7.49645">
        <ele>1320.51</ele>
        <time>2019-04-08T12:15:48Z</time>
      </trkpt>
      <trkpt lat="60.57903" lon="7.49626">
        <ele>1322.91</ele>
        <time>2019-04-08T12:16:06Z</time>
      </trkpt>
      <trkpt lat="60.57889" lon="7.49608">
        <ele>1323.87</ele>
        <time>2019-04-08T12:16:22Z</time>
      </trkpt>
      <trkpt lat="60.57884" lon="7.49606">
        <ele>1323.87</ele>
        <time>2019-04-08T12:16:34Z</time>
      </trkpt>
      <trkpt lat="60.57866" lon="7.49585">
        <ele>1322.43</ele>
        <time>2019-04-08T12:16:54Z</time>
      </trkpt>
      <trkpt lat="60.57858" lon="7.49577">
        <ele>1323.87</ele>
        <time>2019-04-08T12:17:04Z</time>
      </trkpt>
      <trkpt lat="60.57846" lon="7.49561">
        <ele>1324.35</ele>
        <time>2019-04-08T12:17:18Z</time>
      </trkpt>
      <trkpt lat="60.57835" lon="7.49547">
        <ele>1325.8</ele>
        <time>2019-04-08T12:17:33Z</time>
      </trkpt>
      <trkpt lat="60.57823" lon="7.49528">
        <ele>1325.8</ele>
        <time>2019-04-08T12:17:49Z</time>
      </trkpt>
      <trkpt lat="60.57808" lon="7.49506">
        <ele>1325.8</ele>
        <time>2019-04-08T12:18:04Z</time>
      </trkpt>
      <trkpt lat="60.57802" lon="7.49498">
        <ele>1324.35</ele>
        <time>2019-04-08T12:18:10Z</time>
      </trkpt>
      <trkpt lat="60.57787" lon="7.49478">
        <ele>1322.91</ele>
        <time>2019-04-08T12:18:25Z</time>
      </trkpt>
      <trkpt lat="60.57781" lon="7.49466">
        <ele>1322.43</ele>
        <time>2019-04-08T12:18:41Z</time>
      </trkpt>
      <trkpt lat="60.5777" lon="7.49436">
        <ele>1321.47</ele>
        <time>2019-04-08T12:18:56Z</time>
      </trkpt>
      <trkpt lat="60.57759" lon="7.49409">
        <ele>1320.51</ele>
        <time>2019-04-08T12:19:11Z</time>
      </trkpt>
      <trkpt lat="60.57742" lon="7.49378">
        <ele>1317.62</ele>
        <time>2019-04-08T12:19:25Z</time>
      </trkpt>
      <trkpt lat="60.57721" lon="7.49341">
        <ele>1315.22</ele>
        <time>2019-04-08T12:19:42Z</time>
      </trkpt>
      <trkpt lat="60.57704" lon="7.49315">
        <ele>1312.34</ele>
        <time>2019-04-08T12:19:55Z</time>
      </trkpt>
      <trkpt lat="60.5768" lon="7.49286">
        <ele>1309.45</ele>
        <time>2019-04-08T12:20:09Z</time>
      </trkpt>
      <trkpt lat="60.57661" lon="7.49266">
        <ele>1306.57</ele>
        <time>2019-04-08T12:20:23Z</time>
      </trkpt>
      <trkpt lat="60.5764" lon="7.49243">
        <ele>1303.2</ele>
        <time>2019-04-08T12:20:39Z</time>
      </trkpt>
      <trkpt lat="60.5762" lon="7.49215">
        <ele>1300.8</ele>
        <time>2019-04-08T12:20:53Z</time>
      </trkpt>
      <trkpt lat="60.57603" lon="7.4919">
        <ele>1299.84</ele>
        <time>2019-04-08T12:21:10Z</time>
      </trkpt>
      <trkpt lat="60.57586" lon="7.49176">
        <ele>1299.84</ele>
        <time>2019-04-08T12:21:27Z</time>
      </trkpt>
      <trkpt lat="60.5757" lon="7.49162">
        <ele>1302.24</ele>
        <time>2019-04-08T12:21:45Z</time>
      </trkpt>
      <trkpt lat="60.57553" lon="7.49149">
        <ele>1303.69</ele>
        <time>2019-04-08T12:22:04Z</time>
      </trkpt>
      <trkpt lat="60.57536" lon="7.49138">
        <ele>1304.17</ele>
        <time>2019-04-08T12:22:22Z</time>
      </trkpt>
      <trkpt lat="60.57524" lon="7.49124">
        <ele>1302.72</ele>
        <time>2019-04-08T12:22:34Z</time>
      </trkpt>
      <trkpt lat="60.57506" lon="7.49099">
        <ele>1302.24</ele>
        <time>2019-04-08T12:22:54Z</time>
      </trkpt>
      <trkpt lat="60.57491" lon="7.49084">
        <ele>1302.24</ele>
        <time>2019-04-08T12:23:10Z</time>
      </trkpt>
      <trkpt lat="60.57489" lon="7.49081">
        <ele>1303.2</ele>
        <time>2019-04-08T12:23:12Z</time>
      </trkpt>
      <trkpt lat="60.57474" lon="7.49065">
        <ele>1305.61</ele>
        <time>2019-04-08T12:23:30Z</time>
      </trkpt>
      <trkpt lat="60.57461" lon="7.49046">
        <ele>1307.53</ele>
        <time>2019-04-08T12:23:49Z</time>
      </trkpt>
      <trkpt lat="60.57449" lon="7.49029">
        <ele>1309.45</ele>
        <time>2019-04-08T12:24:06Z</time>
      </trkpt>
      <trkpt lat="60.57437" lon="7.49013">
        <ele>1310.41</ele>
        <time>2019-04-08T12:24:22Z</time>
      </trkpt>
      <trkpt lat="60.57424" lon="7.48996">
        <ele>1312.82</ele>
        <time>2019-04-08T12:24:39Z</time>
      </trkpt>
      <trkpt lat="60.5741" lon="7.4898">
        <ele>1314.74</ele>
        <time>2019-04-08T12:24:58Z</time>
      </trkpt>
      <trkpt lat="60.57398" lon="7.48966">
        <ele>1317.62</ele>
        <time>2019-04-08T12:25:16Z</time>
      </trkpt>
      <trkpt lat="60.57393" lon="7.48959">
        <ele>1319.07</ele>
        <time>2019-04-08T12:25:34Z</time>
      </trkpt>
      <trkpt lat="60.57392" lon="7.48959">
        <ele>1318.59</ele>
        <time>2019-04-08T12:26:01Z</time>
      </trkpt>
      <trkpt lat="60.57387" lon="7.4895">
        <ele>1319.55</ele>
        <time>2019-04-08T12:26:26Z</time>
      </trkpt>
      <trkpt lat="60.57378" lon="7.48934">
        <ele>1321.95</ele>
        <time>2019-04-08T12:26:41Z</time>
      </trkpt>
      <trkpt lat="60.57371" lon="7.48918">
        <ele>1323.87</ele>
        <time>2019-04-08T12:26:57Z</time>
      </trkpt>
      <trkpt lat="60.5736" lon="7.48903">
        <ele>1326.76</ele>
        <time>2019-04-08T12:27:14Z</time>
      </trkpt>
      <trkpt lat="60.57352" lon="7.48891">
        <ele>1329.64</ele>
        <time>2019-04-08T12:27:28Z</time>
      </trkpt>
      <trkpt lat="60.57342" lon="7.48872">
        <ele>1332.52</ele>
        <time>2019-04-08T12:27:47Z</time>
      </trkpt>
      <trkpt lat="60.57337" lon="7.48849">
        <ele>1336.37</ele>
        <time>2019-04-08T12:28:03Z</time>
      </trkpt>
      <trkpt lat="60.57332" lon="7.48827">
        <ele>1339.25</ele>
        <time>2019-04-08T12:28:19Z</time>
      </trkpt>
      <trkpt lat="60.57328" lon="7.48803">
        <ele>1342.62</ele>
        <time>2019-04-08T12:28:36Z</time>
      </trkpt>
      <trkpt lat="60.57324" lon="7.48777">
        <ele>1345.98</ele>
        <time>2019-04-08T12:28:55Z</time>
      </trkpt>
      <trkpt lat="60.57319" lon="7.48749">
        <ele>1349.35</ele>
        <time>2019-04-08T12:29:13Z</time>
      </trkpt>
      <trkpt lat="60.57314" lon="7.48726">
        <ele>1352.23</ele>
        <time>2019-04-08T12:29:30Z</time>
      </trkpt>
      <trkpt lat="60.5731" lon="7.48706">
        <ele>1355.6</ele>
        <time>2019-04-08T12:29:46Z</time>
      </trkpt>
      <trkpt lat="60.57303" lon="7.48685">
        <ele>1358.96</ele>
        <time>2019-04-08T12:30:04Z</time>
      </trkpt>
      <trkpt lat="60.5729" lon="7.48669">
        <ele>1359.92</ele>
        <time>2019-04-08T12:30:20Z</time>
      </trkpt>
      <trkpt lat="60.57281" lon="7.48663">
        <ele>1360.88</ele>
        <time>2019-04-08T12:30:31Z</time>
      </trkpt>
      <trkpt lat="60.57269" lon="7.48647">
        <ele>1363.29</ele>
        <time>2019-04-08T12:30:49Z</time>
      </trkpt>
      <trkpt lat="60.57257" lon="7.48634">
        <ele>1366.17</ele>
        <time>2019-04-08T12:31:07Z</time>
      </trkpt>
      <trkpt lat="60.57242" lon="7.48623">
        <ele>1366.17</ele>
        <time>2019-04-08T12:31:23Z</time>
      </trkpt>
      <trkpt lat="60.57228" lon="7.48609">
        <ele>1367.13</ele>
        <time>2019-04-08T12:31:38Z</time>
      </trkpt>
      <trkpt lat="60.57224" lon="7.48603">
        <ele>1367.13</ele>
        <time>2019-04-08T12:31:56Z</time>
      </trkpt>
      <trkpt lat="60.57225" lon="7.48605">
        <ele>1366.65</ele>
        <time>2019-04-08T12:32:29Z</time>
      </trkpt>
      <trkpt lat="60.57213" lon="7.48595">
        <ele>1366.65</ele>
        <time>2019-04-08T12:32:53Z</time>
      </trkpt>
      <trkpt lat="60.57197" lon="7.48574">
        <ele>1366.65</ele>
        <time>2019-04-08T12:33:09Z</time>
      </trkpt>
      <trkpt lat="60.57183" lon="7.4856">
        <ele>1366.17</ele>
        <time>2019-04-08T12:33:24Z</time>
      </trkpt>
      <trkpt lat="60.57167" lon="7.48543">
        <ele>1366.17</ele>
        <time>2019-04-08T12:33:40Z</time>
      </trkpt>
      <trkpt lat="60.57153" lon="7.48526">
        <ele>1366.65</ele>
        <time>2019-04-08T12:33:57Z</time>
      </trkpt>
      <trkpt lat="60.5714" lon="7.48513">
        <ele>1367.13</ele>
        <time>2019-04-08T12:34:11Z</time>
      </trkpt>
      <trkpt lat="60.57137" lon="7.48509">
        <ele>1367.13</ele>
        <time>2019-04-08T12:34:15Z</time>
      </trkpt>
      <trkpt lat="60.57126" lon="7.48487">
        <ele>1370.02</ele>
        <time>2019-04-08T12:34:35Z</time>
      </trkpt>
      <trkpt lat="60.57115" lon="7.48474">
        <ele>1372.9</ele>
        <time>2019-04-08T12:34:52Z</time>
      </trkpt>
      <trkpt lat="60.57101" lon="7.48472">
        <ele>1375.3</ele>
        <time>2019-04-08T12:35:10Z</time>
      </trkpt>
      <trkpt lat="60.57092" lon="7.48461">
        <ele>1375.78</ele>
        <time>2019-04-08T12:35:22Z</time>
      </trkpt>
      <trkpt lat="60.57089" lon="7.48458">
        <ele>1375.78</ele>
        <time>2019-04-08T12:35:26Z</time>
      </trkpt>
      <trkpt lat="60.57079" lon="7.48455">
        <ele>1374.34</ele>
        <time>2019-04-08T12:35:36Z</time>
      </trkpt>
      <trkpt lat="60.57072" lon="7.48448">
        <ele>1373.38</ele>
        <time>2019-04-08T12:35:49Z</time>
      </trkpt>
      <trkpt lat="60.57056" lon="7.48437">
        <ele>1372.9</ele>
        <time>2019-04-08T12:36:05Z</time>
      </trkpt>
      <trkpt lat="60.57056" lon="7.48437">
        <ele>1372.9</ele>
        <time>2019-04-08T12:36:29Z</time>
      </trkpt>
      <trkpt lat="60.57055" lon="7.48437">
        <ele>1372.9</ele>
        <time>2019-04-08T12:36:54Z</time>
      </trkpt>
      <trkpt lat="60.57054" lon="7.48437">
        <ele>1372.9</ele>
        <time>2019-04-08T12:37:22Z</time>
      </trkpt>
      <trkpt lat="60.57057" lon="7.48437">
        <ele>1372.9</ele>
        <time>2019-04-08T12:37:52Z</time>
      </trkpt>
      <trkpt lat="60.57058" lon="7.48437">
        <ele>1372.42</ele>
        <time>2019-04-08T12:38:32Z</time>
      </trkpt>
      <trkpt lat="60.57054" lon="7.48436">
        <ele>1372.42</ele>
        <time>2019-04-08T12:38:59Z</time>
      </trkpt>
      <trkpt lat="60.57053" lon="7.48435">
        <ele>1372.42</ele>
        <time>2019-04-08T12:39:26Z</time>
      </trkpt>
      <trkpt lat="60.57047" lon="7.4843">
        <ele>1372.42</ele>
        <time>2019-04-08T12:39:49Z</time>
      </trkpt>
      <trkpt lat="60.57043" lon="7.48425">
        <ele>1373.38</ele>
        <time>2019-04-08T12:39:54Z</time>
      </trkpt>
      <trkpt lat="60.5703" lon="7.48414">
        <ele>1376.26</ele>
        <time>2019-04-08T12:40:09Z</time>
      </trkpt>
      <trkpt lat="60.57011" lon="7.48395">
        <ele>1376.26</ele>
        <time>2019-04-08T12:40:28Z</time>
      </trkpt>
      <trkpt lat="60.57006" lon="7.48388">
        <ele>1378.19</ele>
        <time>2019-04-08T12:40:45Z</time>
      </trkpt>
      <trkpt lat="60.57005" lon="7.48387">
        <ele>1372.42</ele>
        <time>2019-04-08T12:40:58Z</time>
      </trkpt>
      <trkpt lat="60.57006" lon="7.48386">
        <ele>1374.34</ele>
        <time>2019-04-08T12:40:59Z</time>
      </trkpt>
      <trkpt lat="60.57006" lon="7.48386">
        <ele>1377.71</ele>
        <time>2019-04-08T12:41:00Z</time>
      </trkpt>
      <trkpt lat="60.57006" lon="7.48386">
        <ele>1383.47</ele>
        <time>2019-04-08T12:41:01Z</time>
      </trkpt>
      <trkpt lat="60.57006" lon="7.48385">
        <ele>1383.47</ele>
        <time>2019-04-08T12:41:02Z</time>
      </trkpt>
      <trkpt lat="60.57005" lon="7.48385">
        <ele>1379.15</ele>
        <time>2019-04-08T12:41:03Z</time>
      </trkpt>
      <trkpt lat="60.57005" lon="7.48384">
        <ele>1379.15</ele>
        <time>2019-04-08T12:41:04Z</time>
      </trkpt>
      <trkpt lat="60.56997" lon="7.48375">
        <ele>1381.07</ele>
        <time>2019-04-08T12:41:16Z</time>
      </trkpt>
      <trkpt lat="60.56995" lon="7.48374">
        <ele>1381.55</ele>
        <time>2019-04-08T12:41:30Z</time>
      </trkpt>
      <trkpt lat="60.56986" lon="7.48365">
        <ele>1384.44</ele>
        <time>2019-04-08T12:41:47Z</time>
      </trkpt>
      <trkpt lat="60.5698" lon="7.48349">
        <ele>1387.8</ele>
        <time>2019-04-08T12:42:02Z</time>
      </trkpt>
      <trkpt lat="60.56971" lon="7.48326">
        <ele>1391.17</ele>
        <time>2019-04-08T12:42:20Z</time>
      </trkpt>
      <trkpt lat="60.56968" lon="7.48296">
        <ele>1394.05</ele>
        <time>2019-04-08T12:42:39Z</time>
      </trkpt>
      <trkpt lat="60.5697" lon="7.4827">
        <ele>1397.41</ele>
        <time>2019-04-08T12:42:53Z</time>
      </trkpt>
      <trkpt lat="60.56971" lon="7.48271">
        <ele>1393.09</ele>
        <time>2019-04-08T12:43:09Z</time>
      </trkpt>
      <trkpt lat="60.56971" lon="7.48271">
        <ele>1399.34</ele>
        <time>2019-04-08T12:43:10Z</time>
      </trkpt>
      <trkpt lat="60.56971" lon="7.4827">
        <ele>1395.01</ele>
        <time>2019-04-08T12:43:12Z</time>
      </trkpt>
      <trkpt lat="60.56971" lon="7.4827">
        <ele>1398.86</ele>
        <time>2019-04-08T12:43:13Z</time>
      </trkpt>
      <trkpt lat="60.56971" lon="7.48268">
        <ele>1397.41</ele>
        <time>2019-04-08T12:43:16Z</time>
      </trkpt>
      <trkpt lat="60.56974" lon="7.48239">
        <ele>1400.3</ele>
        <time>2019-04-08T12:43:33Z</time>
      </trkpt>
      <trkpt lat="60.56977" lon="7.48209">
        <ele>1403.18</ele>
        <time>2019-04-08T12:43:49Z</time>
      </trkpt>
      <trkpt lat="60.56977" lon="7.48208">
        <ele>1402.7</ele>
        <time>2019-04-08T12:43:50Z</time>
      </trkpt>
      <trkpt lat="60.56979" lon="7.4818">
        <ele>1405.1</ele>
        <time>2019-04-08T12:44:05Z</time>
      </trkpt>
      <trkpt lat="60.56982" lon="7.48143">
        <ele>1407.51</ele>
        <time>2019-04-08T12:44:23Z</time>
      </trkpt>
      <trkpt lat="60.56984" lon="7.48106">
        <ele>1409.91</ele>
        <time>2019-04-08T12:44:40Z</time>
      </trkpt>
      <trkpt lat="60.56986" lon="7.48068">
        <ele>1411.83</ele>
        <time>2019-04-08T12:44:57Z</time>
      </trkpt>
      <trkpt lat="60.56985" lon="7.48031">
        <ele>1412.79</ele>
        <time>2019-04-08T12:45:13Z</time>
      </trkpt>
      <trkpt lat="60.56982" lon="7.47995">
        <ele>1412.79</ele>
        <time>2019-04-08T12:45:29Z</time>
      </trkpt>
      <trkpt lat="60.56973" lon="7.47967">
        <ele>1413.76</ele>
        <time>2019-04-08T12:45:44Z</time>
      </trkpt>
      <trkpt lat="60.56962" lon="7.47942">
        <ele>1414.72</ele>
        <time>2019-04-08T12:45:58Z</time>
      </trkpt>
      <trkpt lat="60.56949" lon="7.47912">
        <ele>1416.16</ele>
        <time>2019-04-08T12:46:16Z</time>
      </trkpt>
      <trkpt lat="60.56936" lon="7.47888">
        <ele>1417.12</ele>
        <time>2019-04-08T12:46:31Z</time>
      </trkpt>
      <trkpt lat="60.56924" lon="7.47868">
        <ele>1418.56</ele>
        <time>2019-04-08T12:46:46Z</time>
      </trkpt>
      <trkpt lat="60.56912" lon="7.47841">
        <ele>1420.49</ele>
        <time>2019-04-08T12:47:02Z</time>
      </trkpt>
      <trkpt lat="60.56898" lon="7.47813">
        <ele>1420.49</ele>
        <time>2019-04-08T12:47:18Z</time>
      </trkpt>
      <trkpt lat="60.56884" lon="7.47786">
        <ele>1420.97</ele>
        <time>2019-04-08T12:47:35Z</time>
      </trkpt>
      <trkpt lat="60.56876" lon="7.47745">
        <ele>1420.97</ele>
        <time>2019-04-08T12:47:52Z</time>
      </trkpt>
      <trkpt lat="60.56875" lon="7.47723">
        <ele>1419.52</ele>
        <time>2019-04-08T12:47:59Z</time>
      </trkpt>
      <trkpt lat="60.56866" lon="7.47687">
        <ele>1419.04</ele>
        <time>2019-04-08T12:48:15Z</time>
      </trkpt>
      <trkpt lat="60.56863" lon="7.47679">
        <ele>1419.04</ele>
        <time>2019-04-08T12:48:29Z</time>
      </trkpt>
      <trkpt lat="60.56863" lon="7.47677">
        <ele>1419.04</ele>
        <time>2019-04-08T12:48:49Z</time>
      </trkpt>
      <trkpt lat="60.56862" lon="7.47682">
        <ele>1418.56</ele>
        <time>2019-04-08T12:49:12Z</time>
      </trkpt>
      <trkpt lat="60.56861" lon="7.47683">
        <ele>1420</ele>
        <time>2019-04-08T12:49:32Z</time>
      </trkpt>
      <trkpt lat="60.56861" lon="7.47683">
        <ele>1420</ele>
        <time>2019-04-08T12:49:48Z</time>
      </trkpt>
      <trkpt lat="60.5686" lon="7.47682">
        <ele>1419.52</ele>
        <time>2019-04-08T12:50:16Z</time>
      </trkpt>
      <trkpt lat="60.56859" lon="7.47681">
        <ele>1419.52</ele>
        <time>2019-04-08T12:50:43Z</time>
      </trkpt>
      <trkpt lat="60.56859" lon="7.47662">
        <ele>1418.08</ele>
        <time>2019-04-08T12:50:49Z</time>
      </trkpt>
      <trkpt lat="60.56851" lon="7.47625">
        <ele>1416.64</ele>
        <time>2019-04-08T12:51:02Z</time>
      </trkpt>
      <trkpt lat="60.56839" lon="7.47602">
        <ele>1416.64</ele>
        <time>2019-04-08T12:51:18Z</time>
      </trkpt>
      <trkpt lat="60.56824" lon="7.47586">
        <ele>1416.64</ele>
        <time>2019-04-08T12:51:34Z</time>
      </trkpt>
      <trkpt lat="60.56809" lon="7.4757">
        <ele>1418.08</ele>
        <time>2019-04-08T12:51:50Z</time>
      </trkpt>
      <trkpt lat="60.56796" lon="7.47556">
        <ele>1418.56</ele>
        <time>2019-04-08T12:52:05Z</time>
      </trkpt>
      <trkpt lat="60.56782" lon="7.47536">
        <ele>1419.04</ele>
        <time>2019-04-08T12:52:22Z</time>
      </trkpt>
      <trkpt lat="60.5677" lon="7.47515">
        <ele>1419.52</ele>
        <time>2019-04-08T12:52:37Z</time>
      </trkpt>
      <trkpt lat="60.56757" lon="7.47491">
        <ele>1420</ele>
        <time>2019-04-08T12:52:53Z</time>
      </trkpt>
      <trkpt lat="60.56745" lon="7.47464">
        <ele>1421.93</ele>
        <time>2019-04-08T12:53:12Z</time>
      </trkpt>
      <trkpt lat="60.56736" lon="7.47439">
        <ele>1423.37</ele>
        <time>2019-04-08T12:53:29Z</time>
      </trkpt>
      <trkpt lat="60.56731" lon="7.47423">
        <ele>1426.25</ele>
        <time>2019-04-08T12:53:44Z</time>
      </trkpt>
      <trkpt lat="60.56723" lon="7.47402">
        <ele>1427.21</ele>
        <time>2019-04-08T12:53:57Z</time>
      </trkpt>
      <trkpt lat="60.56713" lon="7.47372">
        <ele>1428.66</ele>
        <time>2019-04-08T12:54:15Z</time>
      </trkpt>
      <trkpt lat="60.56713" lon="7.47371">
        <ele>1429.14</ele>
        <time>2019-04-08T12:54:37Z</time>
      </trkpt>
      <trkpt lat="60.56714" lon="7.47372">
        <ele>1429.14</ele>
        <time>2019-04-08T12:55:01Z</time>
      </trkpt>
      <trkpt lat="60.56715" lon="7.47372">
        <ele>1429.14</ele>
        <time>2019-04-08T12:55:34Z</time>
      </trkpt>
      <trkpt lat="60.56705" lon="7.47349">
        <ele>1430.58</ele>
        <time>2019-04-08T12:55:50Z</time>
      </trkpt>
      <trkpt lat="60.56692" lon="7.47313">
        <ele>1432.5</ele>
        <time>2019-04-08T12:56:09Z</time>
      </trkpt>
      <trkpt lat="60.56683" lon="7.4729">
        <ele>1433.94</ele>
        <time>2019-04-08T12:56:23Z</time>
      </trkpt>
      <trkpt lat="60.5667" lon="7.47266">
        <ele>1436.35</ele>
        <time>2019-04-08T12:56:40Z</time>
      </trkpt>
      <trkpt lat="60.56658" lon="7.47245">
        <ele>1438.27</ele>
        <time>2019-04-08T12:56:57Z</time>
      </trkpt>
      <trkpt lat="60.56646" lon="7.47223">
        <ele>1440.19</ele>
        <time>2019-04-08T12:57:14Z</time>
      </trkpt>
      <trkpt lat="60.56634" lon="7.47203">
        <ele>1442.6</ele>
        <time>2019-04-08T12:57:30Z</time>
      </trkpt>
      <trkpt lat="60.56621" lon="7.4718">
        <ele>1445</ele>
        <time>2019-04-08T12:57:48Z</time>
      </trkpt>
      <trkpt lat="60.5661" lon="7.4716">
        <ele>1447.4</ele>
        <time>2019-04-08T12:58:05Z</time>
      </trkpt>
      <trkpt lat="60.56597" lon="7.47135">
        <ele>1450.29</ele>
        <time>2019-04-08T12:58:24Z</time>
      </trkpt>
      <trkpt lat="60.56593" lon="7.47127">
        <ele>1451.73</ele>
        <time>2019-04-08T12:58:40Z</time>
      </trkpt>
      <trkpt lat="60.56593" lon="7.47125">
        <ele>1451.25</ele>
        <time>2019-04-08T12:59:10Z</time>
      </trkpt>
      <trkpt lat="60.56589" lon="7.47118">
        <ele>1451.73</ele>
        <time>2019-04-08T12:59:36Z</time>
      </trkpt>
      <trkpt lat="60.56582" lon="7.471">
        <ele>1453.17</ele>
        <time>2019-04-08T12:59:51Z</time>
      </trkpt>
      <trkpt lat="60.56573" lon="7.47079">
        <ele>1454.61</ele>
        <time>2019-04-08T13:00:07Z</time>
      </trkpt>
      <trkpt lat="60.56566" lon="7.47058">
        <ele>1457.98</ele>
        <time>2019-04-08T13:00:20Z</time>
      </trkpt>
      <trkpt lat="60.56556" lon="7.47031">
        <ele>1459.42</ele>
        <time>2019-04-08T13:00:35Z</time>
      </trkpt>
      <trkpt lat="60.56546" lon="7.47004">
        <ele>1462.3</ele>
        <time>2019-04-08T13:00:51Z</time>
      </trkpt>
      <trkpt lat="60.56535" lon="7.46978">
        <ele>1464.71</ele>
        <time>2019-04-08T13:01:09Z</time>
      </trkpt>
      <trkpt lat="60.56522" lon="7.46958">
        <ele>1467.59</ele>
        <time>2019-04-08T13:01:25Z</time>
      </trkpt>
      <trkpt lat="60.5651" lon="7.46938">
        <ele>1469.51</ele>
        <time>2019-04-08T13:01:43Z</time>
      </trkpt>
      <trkpt lat="60.56497" lon="7.46919">
        <ele>1471.44</ele>
        <time>2019-04-08T13:02:00Z</time>
      </trkpt>
      <trkpt lat="60.56485" lon="7.46904">
        <ele>1472.88</ele>
        <time>2019-04-08T13:02:15Z</time>
      </trkpt>
      <trkpt lat="60.56473" lon="7.46888">
        <ele>1474.8</ele>
        <time>2019-04-08T13:02:30Z</time>
      </trkpt>
      <trkpt lat="60.56459" lon="7.46868">
        <ele>1476.72</ele>
        <time>2019-04-08T13:02:47Z</time>
      </trkpt>
      <trkpt lat="60.56445" lon="7.4685">
        <ele>1479.13</ele>
        <time>2019-04-08T13:03:04Z</time>
      </trkpt>
      <trkpt lat="60.56432" lon="7.46833">
        <ele>1481.05</ele>
        <time>2019-04-08T13:03:20Z</time>
      </trkpt>
      <trkpt lat="60.56419" lon="7.46817">
        <ele>1482.97</ele>
        <time>2019-04-08T13:03:35Z</time>
      </trkpt>
      <trkpt lat="60.56401" lon="7.46799">
        <ele>1484.89</ele>
        <time>2019-04-08T13:03:54Z</time>
      </trkpt>
      <trkpt lat="60.56385" lon="7.4679">
        <ele>1486.82</ele>
        <time>2019-04-08T13:04:10Z</time>
      </trkpt>
      <trkpt lat="60.56367" lon="7.46775">
        <ele>1488.74</ele>
        <time>2019-04-08T13:04:27Z</time>
      </trkpt>
      <trkpt lat="60.56353" lon="7.46762">
        <ele>1490.18</ele>
        <time>2019-04-08T13:04:41Z</time>
      </trkpt>
      <trkpt lat="60.5634" lon="7.46754">
        <ele>1491.62</ele>
        <time>2019-04-08T13:04:53Z</time>
      </trkpt>
      <trkpt lat="60.56334" lon="7.46749">
        <ele>1492.1</ele>
        <time>2019-04-08T13:04:58Z</time>
      </trkpt>
      <trkpt lat="60.5633" lon="7.46746">
        <ele>1492.58</ele>
        <time>2019-04-08T13:05:02Z</time>
      </trkpt>
      <trkpt lat="60.56311" lon="7.46737">
        <ele>1494.03</ele>
        <time>2019-04-08T13:05:20Z</time>
      </trkpt>
      <trkpt lat="60.56291" lon="7.46742">
        <ele>1494.99</ele>
        <time>2019-04-08T13:05:38Z</time>
      </trkpt>
      <trkpt lat="60.56273" lon="7.46753">
        <ele>1496.43</ele>
        <time>2019-04-08T13:05:55Z</time>
      </trkpt>
      <trkpt lat="60.56256" lon="7.46767">
        <ele>1498.83</ele>
        <time>2019-04-08T13:06:14Z</time>
      </trkpt>
      <trkpt lat="60.56241" lon="7.46774">
        <ele>1501.72</ele>
        <time>2019-04-08T13:06:31Z</time>
      </trkpt>
      <trkpt lat="60.56226" lon="7.46781">
        <ele>1504.6</ele>
        <time>2019-04-08T13:06:50Z</time>
      </trkpt>
      <trkpt lat="60.56211" lon="7.46791">
        <ele>1507.48</ele>
        <time>2019-04-08T13:07:09Z</time>
      </trkpt>
      <trkpt lat="60.56199" lon="7.46802">
        <ele>1510.85</ele>
        <time>2019-04-08T13:07:25Z</time>
      </trkpt>
      <trkpt lat="60.5619" lon="7.46817">
        <ele>1514.21</ele>
        <time>2019-04-08T13:07:41Z</time>
      </trkpt>
      <trkpt lat="60.56179" lon="7.46837">
        <ele>1517.58</ele>
        <time>2019-04-08T13:07:59Z</time>
      </trkpt>
      <trkpt lat="60.56171" lon="7.46859">
        <ele>1520.94</ele>
        <time>2019-04-08T13:08:15Z</time>
      </trkpt>
      <trkpt lat="60.56164" lon="7.46881">
        <ele>1522.39</ele>
        <time>2019-04-08T13:08:29Z</time>
      </trkpt>
      <trkpt lat="60.56159" lon="7.46913">
        <ele>1524.79</ele>
        <time>2019-04-08T13:08:46Z</time>
      </trkpt>
      <trkpt lat="60.56152" lon="7.46949">
        <ele>1526.23</ele>
        <time>2019-04-08T13:09:04Z</time>
      </trkpt>
      <trkpt lat="60.56148" lon="7.46987">
        <ele>1528.15</ele>
        <time>2019-04-08T13:09:23Z</time>
      </trkpt>
      <trkpt lat="60.56146" lon="7.47022">
        <ele>1530.56</ele>
        <time>2019-04-08T13:09:41Z</time>
      </trkpt>
      <trkpt lat="60.56144" lon="7.47059">
        <ele>1533.44</ele>
        <time>2019-04-08T13:10:00Z</time>
      </trkpt>
      <trkpt lat="60.56142" lon="7.47091">
        <ele>1535.36</ele>
        <time>2019-04-08T13:10:17Z</time>
      </trkpt>
      <trkpt lat="60.5614" lon="7.47124">
        <ele>1538.73</ele>
        <time>2019-04-08T13:10:35Z</time>
      </trkpt>
      <trkpt lat="60.56137" lon="7.47157">
        <ele>1542.09</ele>
        <time>2019-04-08T13:10:53Z</time>
      </trkpt>
      <trkpt lat="60.56137" lon="7.47184">
        <ele>1545.46</ele>
        <time>2019-04-08T13:11:10Z</time>
      </trkpt>
      <trkpt lat="60.56133" lon="7.47214">
        <ele>1547.86</ele>
        <time>2019-04-08T13:11:29Z</time>
      </trkpt>
      <trkpt lat="60.56127" lon="7.47241">
        <ele>1551.22</ele>
        <time>2019-04-08T13:11:47Z</time>
      </trkpt>
      <trkpt lat="60.5612" lon="7.4727">
        <ele>1554.59</ele>
        <time>2019-04-08T13:12:05Z</time>
      </trkpt>
      <trkpt lat="60.56114" lon="7.47288">
        <ele>1556.03</ele>
        <time>2019-04-08T13:12:19Z</time>
      </trkpt>
      <trkpt lat="60.56109" lon="7.47301">
        <ele>1556.99</ele>
        <time>2019-04-08T13:12:29Z</time>
      </trkpt>
      <trkpt lat="60.56096" lon="7.47318">
        <ele>1559.4</ele>
        <time>2019-04-08T13:12:46Z</time>
      </trkpt>
      <trkpt lat="60.56085" lon="7.47338">
        <ele>1561.8</ele>
        <time>2019-04-08T13:13:04Z</time>
      </trkpt>
      <trkpt lat="60.56084" lon="7.47336">
        <ele>1561.32</ele>
        <time>2019-04-08T13:13:39Z</time>
      </trkpt>
      <trkpt lat="60.56081" lon="7.47347">
        <ele>1561.32</ele>
        <time>2019-04-08T13:13:53Z</time>
      </trkpt>
      <trkpt lat="60.56071" lon="7.47376">
        <ele>1563.72</ele>
        <time>2019-04-08T13:14:10Z</time>
      </trkpt>
      <trkpt lat="60.56061" lon="7.47401">
        <ele>1564.68</ele>
        <time>2019-04-08T13:14:26Z</time>
      </trkpt>
      <trkpt lat="60.56056" lon="7.47415">
        <ele>1566.12</ele>
        <time>2019-04-08T13:14:35Z</time>
      </trkpt>
      <trkpt lat="60.56047" lon="7.4744">
        <ele>1568.53</ele>
        <time>2019-04-08T13:14:52Z</time>
      </trkpt>
      <trkpt lat="60.5604" lon="7.47462">
        <ele>1569.97</ele>
        <time>2019-04-08T13:15:06Z</time>
      </trkpt>
      <trkpt lat="60.56029" lon="7.47484">
        <ele>1571.89</ele>
        <time>2019-04-08T13:15:23Z</time>
      </trkpt>
      <trkpt lat="60.56027" lon="7.47489">
        <ele>1571.89</ele>
        <time>2019-04-08T13:15:50Z</time>
      </trkpt>
      <trkpt lat="60.56024" lon="7.47494">
        <ele>1572.37</ele>
        <time>2019-04-08T13:16:05Z</time>
      </trkpt>
      <trkpt lat="60.5602" lon="7.47504">
        <ele>1573.33</ele>
        <time>2019-04-08T13:16:32Z</time>
      </trkpt>
      <trkpt lat="60.56012" lon="7.47529">
        <ele>1575.26</ele>
        <time>2019-04-08T13:16:49Z</time>
      </trkpt>
      <trkpt lat="60.56005" lon="7.47553">
        <ele>1577.18</ele>
        <time>2019-04-08T13:17:06Z</time>
      </trkpt>
      <trkpt lat="60.55997" lon="7.47574">
        <ele>1580.54</ele>
        <time>2019-04-08T13:17:24Z</time>
      </trkpt>
      <trkpt lat="60.55988" lon="7.47597">
        <ele>1582.95</ele>
        <time>2019-04-08T13:17:42Z</time>
      </trkpt>
      <trkpt lat="60.5598" lon="7.47618">
        <ele>1584.87</ele>
        <time>2019-04-08T13:18:00Z</time>
      </trkpt>
      <trkpt lat="60.55975" lon="7.47635">
        <ele>1587.27</ele>
        <time>2019-04-08T13:18:17Z</time>
      </trkpt>
      <trkpt lat="60.55973" lon="7.47651">
        <ele>1590.16</ele>
        <time>2019-04-08T13:18:32Z</time>
      </trkpt>
      <trkpt lat="60.55968" lon="7.47672">
        <ele>1593.52</ele>
        <time>2019-04-08T13:18:49Z</time>
      </trkpt>
      <trkpt lat="60.55962" lon="7.47688">
        <ele>1596.89</ele>
        <time>2019-04-08T13:19:05Z</time>
      </trkpt>
      <trkpt lat="60.55952" lon="7.47707">
        <ele>1599.77</ele>
        <time>2019-04-08T13:19:22Z</time>
      </trkpt>
      <trkpt lat="60.55943" lon="7.47723">
        <ele>1603.14</ele>
        <time>2019-04-08T13:19:39Z</time>
      </trkpt>
      <trkpt lat="60.55934" lon="7.47748">
        <ele>1606.02</ele>
        <time>2019-04-08T13:19:59Z</time>
      </trkpt>
      <trkpt lat="60.55925" lon="7.47767">
        <ele>1609.38</ele>
        <time>2019-04-08T13:20:17Z</time>
      </trkpt>
      <trkpt lat="60.55913" lon="7.47787">
        <ele>1613.23</ele>
        <time>2019-04-08T13:20:36Z</time>
      </trkpt>
      <trkpt lat="60.55901" lon="7.47803">
        <ele>1616.11</ele>
        <time>2019-04-08T13:20:53Z</time>
      </trkpt>
      <trkpt lat="60.55892" lon="7.47813">
        <ele>1619</ele>
        <time>2019-04-08T13:21:05Z</time>
      </trkpt>
      <trkpt lat="60.5588" lon="7.47818">
        <ele>1622.84</ele>
        <time>2019-04-08T13:21:23Z</time>
      </trkpt>
      <trkpt lat="60.55871" lon="7.47819">
        <ele>1626.21</ele>
        <time>2019-04-08T13:21:35Z</time>
      </trkpt>
      <trkpt lat="60.5586" lon="7.47817">
        <ele>1629.57</ele>
        <time>2019-04-08T13:21:49Z</time>
      </trkpt>
      <trkpt lat="60.55853" lon="7.47816">
        <ele>1629.57</ele>
        <time>2019-04-08T13:22:06Z</time>
      </trkpt>
      <trkpt lat="60.55853" lon="7.47816">
        <ele>1629.57</ele>
        <time>2019-04-08T13:22:07Z</time>
      </trkpt>
      <trkpt lat="60.55851" lon="7.47815">
        <ele>1630.53</ele>
        <time>2019-04-08T13:22:23Z</time>
      </trkpt>
      <trkpt lat="60.55842" lon="7.47819">
        <ele>1633.9</ele>
        <time>2019-04-08T13:22:37Z</time>
      </trkpt>
      <trkpt lat="60.55831" lon="7.47817">
        <ele>1637.26</ele>
        <time>2019-04-08T13:22:53Z</time>
      </trkpt>
      <trkpt lat="60.55821" lon="7.47812">
        <ele>1640.63</ele>
        <time>2019-04-08T13:23:07Z</time>
      </trkpt>
      <trkpt lat="60.55812" lon="7.47804">
        <ele>1643.03</ele>
        <time>2019-04-08T13:23:21Z</time>
      </trkpt>
      <trkpt lat="60.55801" lon="7.47791">
        <ele>1646.88</ele>
        <time>2019-04-08T13:23:38Z</time>
      </trkpt>
      <trkpt lat="60.5579" lon="7.47771">
        <ele>1650.24</ele>
        <time>2019-04-08T13:23:57Z</time>
      </trkpt>
      <trkpt lat="60.55785" lon="7.47756">
        <ele>1650.72</ele>
        <time>2019-04-08T13:24:08Z</time>
      </trkpt>
      <trkpt lat="60.55777" lon="7.47731">
        <ele>1653.12</ele>
        <time>2019-04-08T13:24:25Z</time>
      </trkpt>
      <trkpt lat="60.5577" lon="7.47718">
        <ele>1655.05</ele>
        <time>2019-04-08T13:24:35Z</time>
      </trkpt>
      <trkpt lat="60.55764" lon="7.47707">
        <ele>1656.49</ele>
        <time>2019-04-08T13:24:48Z</time>
      </trkpt>
      <trkpt lat="60.5575" lon="7.47694">
        <ele>1657.93</ele>
        <time>2019-04-08T13:25:04Z</time>
      </trkpt>
      <trkpt lat="60.55734" lon="7.47679">
        <ele>1658.41</ele>
        <time>2019-04-08T13:25:20Z</time>
      </trkpt>
      <trkpt lat="60.55719" lon="7.47665">
        <ele>1659.37</ele>
        <time>2019-04-08T13:25:34Z</time>
      </trkpt>
      <trkpt lat="60.55704" lon="7.47646">
        <ele>1660.33</ele>
        <time>2019-04-08T13:25:51Z</time>
      </trkpt>
      <trkpt lat="60.55687" lon="7.47627">
        <ele>1663.22</ele>
        <time>2019-04-08T13:26:10Z</time>
      </trkpt>
      <trkpt lat="60.55677" lon="7.47615">
        <ele>1666.1</ele>
        <time>2019-04-08T13:26:23Z</time>
      </trkpt>
      <trkpt lat="60.55666" lon="7.47602">
        <ele>1669.95</ele>
        <time>2019-04-08T13:26:39Z</time>
      </trkpt>
      <trkpt lat="60.55656" lon="7.47593">
        <ele>1673.31</ele>
        <time>2019-04-08T13:26:56Z</time>
      </trkpt>
      <trkpt lat="60.55646" lon="7.47585">
        <ele>1676.68</ele>
        <time>2019-04-08T13:27:11Z</time>
      </trkpt>
      <trkpt lat="60.55636" lon="7.47579">
        <ele>1680.04</ele>
        <time>2019-04-08T13:27:28Z</time>
      </trkpt>
      <trkpt lat="60.55627" lon="7.47576">
        <ele>1683.41</ele>
        <time>2019-04-08T13:27:43Z</time>
      </trkpt>
      <trkpt lat="60.55615" lon="7.47572">
        <ele>1686.77</ele>
        <time>2019-04-08T13:28:00Z</time>
      </trkpt>
      <trkpt lat="60.55604" lon="7.47564">
        <ele>1689.17</ele>
        <time>2019-04-08T13:28:17Z</time>
      </trkpt>
      <trkpt lat="60.55597" lon="7.47554">
        <ele>1692.54</ele>
        <time>2019-04-08T13:28:31Z</time>
      </trkpt>
      <trkpt lat="60.55587" lon="7.47545">
        <ele>1695.9</ele>
        <time>2019-04-08T13:28:46Z</time>
      </trkpt>
      <trkpt lat="60.55578" lon="7.47535">
        <ele>1698.79</ele>
        <time>2019-04-08T13:29:03Z</time>
      </trkpt>
      <trkpt lat="60.5557" lon="7.47524">
        <ele>1702.63</ele>
        <time>2019-04-08T13:29:19Z</time>
      </trkpt>
      <trkpt lat="60.55562" lon="7.47517">
        <ele>1705.52</ele>
        <time>2019-04-08T13:29:35Z</time>
      </trkpt>
      <trkpt lat="60.55553" lon="7.4751">
        <ele>1708.88</ele>
        <time>2019-04-08T13:29:51Z</time>
      </trkpt>
      <trkpt lat="60.55544" lon="7.47496">
        <ele>1711.76</ele>
        <time>2019-04-08T13:30:11Z</time>
      </trkpt>
      <trkpt lat="60.55537" lon="7.47482">
        <ele>1715.13</ele>
        <time>2019-04-08T13:30:26Z</time>
      </trkpt>
      <trkpt lat="60.55526" lon="7.47468">
        <ele>1718.01</ele>
        <time>2019-04-08T13:30:43Z</time>
      </trkpt>
      <trkpt lat="60.55516" lon="7.47454">
        <ele>1721.86</ele>
        <time>2019-04-08T13:31:01Z</time>
      </trkpt>
      <trkpt lat="60.55507" lon="7.4744">
        <ele>1725.7</ele>
        <time>2019-04-08T13:31:18Z</time>
      </trkpt>
      <trkpt lat="60.55496" lon="7.47427">
        <ele>1729.07</ele>
        <time>2019-04-08T13:31:36Z</time>
      </trkpt>
      <trkpt lat="60.55487" lon="7.47414">
        <ele>1731.95</ele>
        <time>2019-04-08T13:31:51Z</time>
      </trkpt>
      <trkpt lat="60.55479" lon="7.47405">
        <ele>1735.32</ele>
        <time>2019-04-08T13:32:06Z</time>
      </trkpt>
      <trkpt lat="60.55471" lon="7.47395">
        <ele>1738.68</ele>
        <time>2019-04-08T13:32:19Z</time>
      </trkpt>
      <trkpt lat="60.55463" lon="7.47381">
        <ele>1741.08</ele>
        <time>2019-04-08T13:32:37Z</time>
      </trkpt>
      <trkpt lat="60.55455" lon="7.4737">
        <ele>1744.45</ele>
        <time>2019-04-08T13:32:51Z</time>
      </trkpt>
      <trkpt lat="60.55448" lon="7.47362">
        <ele>1747.33</ele>
        <time>2019-04-08T13:33:04Z</time>
      </trkpt>
      <trkpt lat="60.5544" lon="7.47356">
        <ele>1750.7</ele>
        <time>2019-04-08T13:33:20Z</time>
      </trkpt>
      <trkpt lat="60.55429" lon="7.47351">
        <ele>1754.06</ele>
        <time>2019-04-08T13:33:37Z</time>
      </trkpt>
      <trkpt lat="60.55417" lon="7.47348">
        <ele>1757.43</ele>
        <time>2019-04-08T13:33:53Z</time>
      </trkpt>
      <trkpt lat="60.55404" lon="7.47344">
        <ele>1760.31</ele>
        <time>2019-04-08T13:34:11Z</time>
      </trkpt>
      <trkpt lat="60.55401" lon="7.47343">
        <ele>1761.27</ele>
        <time>2019-04-08T13:34:15Z</time>
      </trkpt>
      <trkpt lat="60.55386" lon="7.47334">
        <ele>1763.2</ele>
        <time>2019-04-08T13:34:33Z</time>
      </trkpt>
      <trkpt lat="60.55372" lon="7.47318">
        <ele>1766.56</ele>
        <time>2019-04-08T13:34:51Z</time>
      </trkpt>
      <trkpt lat="60.55357" lon="7.47307">
        <ele>1769.44</ele>
        <time>2019-04-08T13:35:07Z</time>
      </trkpt>
      <trkpt lat="60.55342" lon="7.473">
        <ele>1771.37</ele>
        <time>2019-04-08T13:35:24Z</time>
      </trkpt>
      <trkpt lat="60.55325" lon="7.47298">
        <ele>1773.77</ele>
        <time>2019-04-08T13:35:42Z</time>
      </trkpt>
      <trkpt lat="60.55308" lon="7.47289">
        <ele>1776.65</ele>
        <time>2019-04-08T13:35:59Z</time>
      </trkpt>
      <trkpt lat="60.55293" lon="7.47274">
        <ele>1778.58</ele>
        <time>2019-04-08T13:36:16Z</time>
      </trkpt>
      <trkpt lat="60.5529" lon="7.47268">
        <ele>1780.02</ele>
        <time>2019-04-08T13:36:20Z</time>
      </trkpt>
      <trkpt lat="60.55287" lon="7.4723">
        <ele>1780.98</ele>
        <time>2019-04-08T13:36:37Z</time>
      </trkpt>
      <trkpt lat="60.55282" lon="7.47202">
        <ele>1780.98</ele>
        <time>2019-04-08T13:36:49Z</time>
      </trkpt>
      <trkpt lat="60.55278" lon="7.47169">
        <ele>1782.9</ele>
        <time>2019-04-08T13:37:05Z</time>
      </trkpt>
      <trkpt lat="60.55274" lon="7.47133">
        <ele>1784.82</ele>
        <time>2019-04-08T13:37:22Z</time>
      </trkpt>
      <trkpt lat="60.55273" lon="7.47096">
        <ele>1786.75</ele>
        <time>2019-04-08T13:37:40Z</time>
      </trkpt>
      <trkpt lat="60.55272" lon="7.47061">
        <ele>1789.63</ele>
        <time>2019-04-08T13:37:57Z</time>
      </trkpt>
      <trkpt lat="60.55274" lon="7.47044">
        <ele>1790.11</ele>
        <time>2019-04-08T13:38:08Z</time>
      </trkpt>
      <trkpt lat="60.55274" lon="7.47042">
        <ele>1780.02</ele>
        <time>2019-04-08T13:38:19Z</time>
      </trkpt>
      <trkpt lat="60.55272" lon="7.47038">
        <ele>1794.92</ele>
        <time>2019-04-08T13:38:21Z</time>
      </trkpt>
      <trkpt lat="60.55271" lon="7.47038">
        <ele>1792.03</ele>
        <time>2019-04-08T13:38:22Z</time>
      </trkpt>
      <trkpt lat="60.5527" lon="7.47039">
        <ele>1786.27</ele>
        <time>2019-04-08T13:38:23Z</time>
      </trkpt>
      <trkpt lat="60.55271" lon="7.47039">
        <ele>1797.8</ele>
        <time>2019-04-08T13:38:24Z</time>
      </trkpt>
      <trkpt lat="60.55271" lon="7.47039">
        <ele>1792.03</ele>
        <time>2019-04-08T13:38:25Z</time>
      </trkpt>
      <trkpt lat="60.55271" lon="7.47041">
        <ele>1789.15</ele>
        <time>2019-04-08T13:38:27Z</time>
      </trkpt>
      <trkpt lat="60.5527" lon="7.4704">
        <ele>1789.15</ele>
        <time>2019-04-08T13:38:28Z</time>
      </trkpt>
      <trkpt lat="60.5527" lon="7.47035">
        <ele>1791.07</ele>
        <time>2019-04-08T13:38:32Z</time>
      </trkpt>
      <trkpt lat="60.55269" lon="7.47033">
        <ele>1790.59</ele>
        <time>2019-04-08T13:38:46Z</time>
      </trkpt>
      <trkpt lat="60.5527" lon="7.47029">
        <ele>1792.03</ele>
        <time>2019-04-08T13:38:56Z</time>
      </trkpt>
      <trkpt lat="60.55273" lon="7.47028">
        <ele>1791.55</ele>
        <time>2019-04-08T13:39:07Z</time>
      </trkpt>
      <trkpt lat="60.55274" lon="7.47027">
        <ele>1789.63</ele>
        <time>2019-04-08T13:39:21Z</time>
      </trkpt>
      <trkpt lat="60.55278" lon="7.47049">
        <ele>1791.55</ele>
        <time>2019-04-08T14:38:28Z</time>
      </trkpt>
      <trkpt lat="60.55278" lon="7.47048">
        <ele>1791.55</ele>
        <time>2019-04-08T14:38:29Z</time>
      </trkpt>
      <trkpt lat="60.55276" lon="7.47044">
        <ele>1791.07</ele>
        <time>2019-04-08T14:38:48Z</time>
      </trkpt>
      <trkpt lat="60.55274" lon="7.47042">
        <ele>1790.59</ele>
        <time>2019-04-08T14:39:20Z</time>
      </trkpt>
      <trkpt lat="60.55274" lon="7.4704">
        <ele>1790.11</ele>
        <time>2019-04-08T14:39:51Z</time>
      </trkpt>
      <trkpt lat="60.55273" lon="7.4704">
        <ele>1790.11</ele>
        <time>2019-04-08T14:40:16Z</time>
      </trkpt>
      <trkpt lat="60.55274" lon="7.4704">
        <ele>1790.11</ele>
        <time>2019-04-08T14:40:36Z</time>
      </trkpt>
      <trkpt lat="60.55275" lon="7.47038">
        <ele>1791.55</ele>
        <time>2019-04-08T14:40:39Z</time>
      </trkpt>
      <trkpt lat="60.55276" lon="7.4704">
        <ele>1792.52</ele>
        <time>2019-04-08T14:40:55Z</time>
      </trkpt>
      <trkpt lat="60.55276" lon="7.47039">
        <ele>1790.59</ele>
        <time>2019-04-08T14:41:00Z</time>
      </trkpt>
      <trkpt lat="60.55276" lon="7.47039">
        <ele>1792.03</ele>
        <time>2019-04-08T14:41:03Z</time>
      </trkpt>
      <trkpt lat="60.55276" lon="7.4704">
        <ele>1791.07</ele>
        <time>2019-04-08T14:41:07Z</time>
      </trkpt>
      <trkpt lat="60.55276" lon="7.4704">
        <ele>1792.52</ele>
        <time>2019-04-08T14:41:13Z</time>
      </trkpt>
      <trkpt lat="60.55276" lon="7.4704">
        <ele>1782.9</ele>
        <time>2019-04-08T14:41:21Z</time>
      </trkpt>
      <trkpt lat="60.55279" lon="7.47042">
        <ele>1783.86</ele>
        <time>2019-04-08T14:41:23Z</time>
      </trkpt>
      <trkpt lat="60.5528" lon="7.47042">
        <ele>1800.69</ele>
        <time>2019-04-08T14:41:24Z</time>
      </trkpt>
      <trkpt lat="60.5528" lon="7.47044">
        <ele>1782.42</ele>
        <time>2019-04-08T14:41:25Z</time>
      </trkpt>
      <trkpt lat="60.55281" lon="7.47048">
        <ele>1796.84</ele>
        <time>2019-04-08T14:41:28Z</time>
      </trkpt>
      <trkpt lat="60.55282" lon="7.47046">
        <ele>1792.52</ele>
        <time>2019-04-08T14:41:29Z</time>
      </trkpt>
      <trkpt lat="60.55284" lon="7.47007">
        <ele>1792.52</ele>
        <time>2019-04-08T14:41:46Z</time>
      </trkpt>
      <trkpt lat="60.55288" lon="7.46989">
        <ele>1791.07</ele>
        <time>2019-04-08T14:41:55Z</time>
      </trkpt>
      <trkpt lat="60.55289" lon="7.46968">
        <ele>1788.67</ele>
        <time>2019-04-08T14:42:09Z</time>
      </trkpt>
      <trkpt lat="60.55278" lon="7.46975">
        <ele>1780.98</ele>
        <time>2019-04-08T14:42:24Z</time>
      </trkpt>
      <trkpt lat="60.55278" lon="7.46975">
        <ele>1789.63</ele>
        <time>2019-04-08T14:42:25Z</time>
      </trkpt>
      <trkpt lat="60.55278" lon="7.46974">
        <ele>1776.65</ele>
        <time>2019-04-08T14:42:35Z</time>
      </trkpt>
      <trkpt lat="60.55281" lon="7.46975">
        <ele>1789.15</ele>
        <time>2019-04-08T14:42:37Z</time>
      </trkpt>
      <trkpt lat="60.5528" lon="7.46976">
        <ele>1786.27</ele>
        <time>2019-04-08T14:42:41Z</time>
      </trkpt>
      <trkpt lat="60.5528" lon="7.46975">
        <ele>1787.71</ele>
        <time>2019-04-08T14:42:44Z</time>
      </trkpt>
      <trkpt lat="60.55279" lon="7.46972">
        <ele>1790.59</ele>
        <time>2019-04-08T14:42:55Z</time>
      </trkpt>
      <trkpt lat="60.5528" lon="7.46969">
        <ele>1788.19</ele>
        <time>2019-04-08T14:42:57Z</time>
      </trkpt>
      <trkpt lat="60.55279" lon="7.46971">
        <ele>1788.67</ele>
        <time>2019-04-08T14:43:09Z</time>
      </trkpt>
      <trkpt lat="60.55279" lon="7.46971">
        <ele>1788.67</ele>
        <time>2019-04-08T14:43:15Z</time>
      </trkpt>
      <trkpt lat="60.55278" lon="7.46973">
        <ele>1778.58</ele>
        <time>2019-04-08T14:43:19Z</time>
      </trkpt>
      <trkpt lat="60.55277" lon="7.46974">
        <ele>1792.03</ele>
        <time>2019-04-08T14:43:20Z</time>
      </trkpt>
      <trkpt lat="60.55277" lon="7.46976">
        <ele>1778.1</ele>
        <time>2019-04-08T14:43:22Z</time>
      </trkpt>
      <trkpt lat="60.55277" lon="7.46976">
        <ele>1796.36</ele>
        <time>2019-04-08T14:43:23Z</time>
      </trkpt>
      <trkpt lat="60.55277" lon="7.46974">
        <ele>1787.71</ele>
        <time>2019-04-08T14:43:26Z</time>
      </trkpt>
      <trkpt lat="60.55277" lon="7.46974">
        <ele>1779.06</ele>
        <time>2019-04-08T14:43:28Z</time>
      </trkpt>
      <trkpt lat="60.55278" lon="7.46974">
        <ele>1789.63</ele>
        <time>2019-04-08T14:43:29Z</time>
      </trkpt>
      <trkpt lat="60.55277" lon="7.46974">
        <ele>1787.23</ele>
        <time>2019-04-08T14:43:33Z</time>
      </trkpt>
      <trkpt lat="60.55278" lon="7.46974">
        <ele>1782.42</ele>
        <time>2019-04-08T14:43:35Z</time>
      </trkpt>
      <trkpt lat="60.55278" lon="7.46974">
        <ele>1785.31</ele>
        <time>2019-04-08T14:43:36Z</time>
      </trkpt>
      <trkpt lat="60.55278" lon="7.46973">
        <ele>1789.63</ele>
        <time>2019-04-08T14:43:37Z</time>
      </trkpt>
      <trkpt lat="60.55276" lon="7.46973">
        <ele>1789.15</ele>
        <time>2019-04-08T14:43:39Z</time>
      </trkpt>
      <trkpt lat="60.55276" lon="7.46974">
        <ele>1782.9</ele>
        <time>2019-04-08T14:43:43Z</time>
      </trkpt>
      <trkpt lat="60.55276" lon="7.46976">
        <ele>1789.15</ele>
        <time>2019-04-08T14:43:44Z</time>
      </trkpt>
      <trkpt lat="60.55276" lon="7.46974">
        <ele>1787.71</ele>
        <time>2019-04-08T14:43:49Z</time>
      </trkpt>
      <trkpt lat="60.55277" lon="7.46973">
        <ele>1787.23</ele>
        <time>2019-04-08T14:43:51Z</time>
      </trkpt>
      <trkpt lat="60.55279" lon="7.46976">
        <ele>1788.19</ele>
        <time>2019-04-08T14:43:55Z</time>
      </trkpt>
      <trkpt lat="60.55281" lon="7.46979">
        <ele>1798.28</ele>
        <time>2019-04-08T14:43:57Z</time>
      </trkpt>
      <trkpt lat="60.5528" lon="7.46977">
        <ele>1787.23</ele>
        <time>2019-04-08T14:43:58Z</time>
      </trkpt>
      <trkpt lat="60.5528" lon="7.46976">
        <ele>1781.94</ele>
        <time>2019-04-08T14:43:59Z</time>
      </trkpt>
      <trkpt lat="60.55279" lon="7.46975">
        <ele>1790.11</ele>
        <time>2019-04-08T14:44:00Z</time>
      </trkpt>
      <trkpt lat="60.55279" lon="7.46976">
        <ele>1790.11</ele>
        <time>2019-04-08T14:44:01Z</time>
      </trkpt>
      <trkpt lat="60.55278" lon="7.46975">
        <ele>1786.75</ele>
        <time>2019-04-08T14:44:04Z</time>
      </trkpt>
      <trkpt lat="60.55277" lon="7.46974">
        <ele>1790.59</ele>
        <time>2019-04-08T14:44:05Z</time>
      </trkpt>
      <trkpt lat="60.55278" lon="7.46979">
        <ele>1788.19</ele>
        <time>2019-04-08T14:44:09Z</time>
      </trkpt>
      <trkpt lat="60.5528" lon="7.46981">
        <ele>1787.71</ele>
        <time>2019-04-08T14:44:12Z</time>
      </trkpt>
      <trkpt lat="60.55282" lon="7.46982">
        <ele>1784.82</ele>
        <time>2019-04-08T14:44:14Z</time>
      </trkpt>
      <trkpt lat="60.55282" lon="7.46982">
        <ele>1793</ele>
        <time>2019-04-08T14:44:15Z</time>
      </trkpt>
      <trkpt lat="60.55283" lon="7.4698">
        <ele>1788.19</ele>
        <time>2019-04-08T14:44:16Z</time>
      </trkpt>
      <trkpt lat="60.55278" lon="7.46974">
        <ele>1782.42</ele>
        <time>2019-04-08T14:44:21Z</time>
      </trkpt>
      <trkpt lat="60.55278" lon="7.46973">
        <ele>1791.55</ele>
        <time>2019-04-08T14:44:22Z</time>
      </trkpt>
      <trkpt lat="60.55279" lon="7.46971">
        <ele>1788.19</ele>
        <time>2019-04-08T14:44:23Z</time>
      </trkpt>
      <trkpt lat="60.55279" lon="7.46969">
        <ele>1787.23</ele>
        <time>2019-04-08T14:44:24Z</time>
      </trkpt>
      <trkpt lat="60.5528" lon="7.46967">
        <ele>1787.23</ele>
        <time>2019-04-08T14:44:39Z</time>
      </trkpt>
      <trkpt lat="60.5528" lon="7.46965">
        <ele>1787.23</ele>
        <time>2019-04-08T14:44:58Z</time>
      </trkpt>
      <trkpt lat="60.55287" lon="7.46959">
        <ele>1787.23</ele>
        <time>2019-04-08T14:45:13Z</time>
      </trkpt>
      <trkpt lat="60.55294" lon="7.46957">
        <ele>1787.23</ele>
        <time>2019-04-08T14:45:27Z</time>
      </trkpt>
      <trkpt lat="60.55297" lon="7.46957">
        <ele>1788.19</ele>
        <time>2019-04-08T14:45:39Z</time>
      </trkpt>
      <trkpt lat="60.55296" lon="7.46958">
        <ele>1784.82</ele>
        <time>2019-04-08T14:45:51Z</time>
      </trkpt>
      <trkpt lat="60.55296" lon="7.46958">
        <ele>1790.11</ele>
        <time>2019-04-08T14:45:52Z</time>
      </trkpt>
      <trkpt lat="60.55293" lon="7.46959">
        <ele>1787.71</ele>
        <time>2019-04-08T14:46:01Z</time>
      </trkpt>
      <trkpt lat="60.55289" lon="7.46964">
        <ele>1788.67</ele>
        <time>2019-04-08T14:46:10Z</time>
      </trkpt>
      <trkpt lat="60.55292" lon="7.46961">
        <ele>1787.23</ele>
        <time>2019-04-08T14:46:13Z</time>
      </trkpt>
      <trkpt lat="60.55299" lon="7.46954">
        <ele>1787.23</ele>
        <time>2019-04-08T14:46:28Z</time>
      </trkpt>
      <trkpt lat="60.55299" lon="7.46955">
        <ele>1783.86</ele>
        <time>2019-04-08T14:46:39Z</time>
      </trkpt>
      <trkpt lat="60.55298" lon="7.46957">
        <ele>1788.19</ele>
        <time>2019-04-08T14:46:41Z</time>
      </trkpt>
      <trkpt lat="60.55298" lon="7.46957">
        <ele>1791.55</ele>
        <time>2019-04-08T14:46:42Z</time>
      </trkpt>
      <trkpt lat="60.55299" lon="7.46956">
        <ele>1787.71</ele>
        <time>2019-04-08T14:46:43Z</time>
      </trkpt>
      <trkpt lat="60.55298" lon="7.46958">
        <ele>1787.71</ele>
        <time>2019-04-08T14:46:58Z</time>
      </trkpt>
      <trkpt lat="60.55299" lon="7.46964">
        <ele>1790.11</ele>
        <time>2019-04-08T14:47:01Z</time>
      </trkpt>
      <trkpt lat="60.55299" lon="7.46966">
        <ele>1781.94</ele>
        <time>2019-04-08T14:47:04Z</time>
      </trkpt>
      <trkpt lat="60.55299" lon="7.46967">
        <ele>1787.71</ele>
        <time>2019-04-08T14:47:05Z</time>
      </trkpt>
      <trkpt lat="60.55299" lon="7.46967">
        <ele>1784.34</ele>
        <time>2019-04-08T14:47:09Z</time>
      </trkpt>
      <trkpt lat="60.55299" lon="7.46966">
        <ele>1798.76</ele>
        <time>2019-04-08T14:47:10Z</time>
      </trkpt>
      <trkpt lat="60.55299" lon="7.46966">
        <ele>1788.19</ele>
        <time>2019-04-08T14:47:11Z</time>
      </trkpt>
      <trkpt lat="60.55298" lon="7.46952">
        <ele>1788.19</ele>
        <time>2019-04-08T14:47:30Z</time>
      </trkpt>
      <trkpt lat="60.55298" lon="7.46948">
        <ele>1788.19</ele>
        <time>2019-04-08T14:47:45Z</time>
      </trkpt>
      <trkpt lat="60.55299" lon="7.46948">
        <ele>1787.71</ele>
        <time>2019-04-08T14:48:03Z</time>
      </trkpt>
      <trkpt lat="60.553" lon="7.46948">
        <ele>1787.71</ele>
        <time>2019-04-08T14:48:43Z</time>
      </trkpt>
      <trkpt lat="60.553" lon="7.46948">
        <ele>1787.23</ele>
        <time>2019-04-08T14:49:17Z</time>
      </trkpt>
      <trkpt lat="60.55299" lon="7.46949">
        <ele>1787.23</ele>
        <time>2019-04-08T14:49:37Z</time>
      </trkpt>
      <trkpt lat="60.55301" lon="7.46951">
        <ele>1787.23</ele>
        <time>2019-04-08T14:49:57Z</time>
      </trkpt>
      <trkpt lat="60.55303" lon="7.46952">
        <ele>1785.31</ele>
        <time>2019-04-08T14:49:59Z</time>
      </trkpt>
      <trkpt lat="60.55304" lon="7.46954">
        <ele>1786.75</ele>
        <time>2019-04-08T14:50:04Z</time>
      </trkpt>
      <trkpt lat="60.55305" lon="7.46952">
        <ele>1786.75</ele>
        <time>2019-04-08T14:50:30Z</time>
      </trkpt>
      <trkpt lat="60.55305" lon="7.46953">
        <ele>1786.27</ele>
        <time>2019-04-08T14:50:57Z</time>
      </trkpt>
      <trkpt lat="60.55312" lon="7.46952">
        <ele>1786.27</ele>
        <time>2019-04-08T14:51:18Z</time>
      </trkpt>
      <trkpt lat="60.55317" lon="7.46953">
        <ele>1786.75</ele>
        <time>2019-04-08T14:51:32Z</time>
      </trkpt>
      <trkpt lat="60.5532" lon="7.46949">
        <ele>1786.75</ele>
        <time>2019-04-08T14:51:46Z</time>
      </trkpt>
      <trkpt lat="60.55319" lon="7.46945">
        <ele>1786.75</ele>
        <time>2019-04-08T14:51:56Z</time>
      </trkpt>
      <trkpt lat="60.55321" lon="7.46939">
        <ele>1786.75</ele>
        <time>2019-04-08T14:52:00Z</time>
      </trkpt>
      <trkpt lat="60.55328" lon="7.4693">
        <ele>1785.31</ele>
        <time>2019-04-08T14:52:13Z</time>
      </trkpt>
      <trkpt lat="60.5533" lon="7.46933">
        <ele>1784.82</ele>
        <time>2019-04-08T14:52:32Z</time>
      </trkpt>
      <trkpt lat="60.55329" lon="7.46935">
        <ele>1784.82</ele>
        <time>2019-04-08T14:52:45Z</time>
      </trkpt>
      <trkpt lat="60.55329" lon="7.46934">
        <ele>1784.82</ele>
        <time>2019-04-08T14:52:48Z</time>
      </trkpt>
      <trkpt lat="60.55327" lon="7.46915">
        <ele>1784.82</ele>
        <time>2019-04-08T14:52:53Z</time>
      </trkpt>
      <trkpt lat="60.55332" lon="7.46882">
        <ele>1786.27</ele>
        <time>2019-04-08T14:52:57Z</time>
      </trkpt>
      <trkpt lat="60.5533" lon="7.46829">
        <ele>1787.23</ele>
        <time>2019-04-08T14:53:02Z</time>
      </trkpt>
      <trkpt lat="60.55332" lon="7.46787">
        <ele>1787.71</ele>
        <time>2019-04-08T14:53:06Z</time>
      </trkpt>
      <trkpt lat="60.5534" lon="7.4671">
        <ele>1789.15</ele>
        <time>2019-04-08T14:53:16Z</time>
      </trkpt>
      <trkpt lat="60.55339" lon="7.46641">
        <ele>1791.07</ele>
        <time>2019-04-08T14:53:25Z</time>
      </trkpt>
      <trkpt lat="60.55342" lon="7.46624">
        <ele>1791.55</ele>
        <time>2019-04-08T14:53:28Z</time>
      </trkpt>
      <trkpt lat="60.55348" lon="7.46603">
        <ele>1792.03</ele>
        <time>2019-04-08T14:53:36Z</time>
      </trkpt>
      <trkpt lat="60.55347" lon="7.46604">
        <ele>1792.03</ele>
        <time>2019-04-08T14:53:39Z</time>
      </trkpt>
      <trkpt lat="60.55334" lon="7.46635">
        <ele>1790.59</ele>
        <time>2019-04-08T14:53:49Z</time>
      </trkpt>
      <trkpt lat="60.55332" lon="7.46652">
        <ele>1790.11</ele>
        <time>2019-04-08T14:53:51Z</time>
      </trkpt>
      <trkpt lat="60.55332" lon="7.4668">
        <ele>1788.67</ele>
        <time>2019-04-08T14:53:54Z</time>
      </trkpt>
      <trkpt lat="60.55338" lon="7.46716">
        <ele>1786.75</ele>
        <time>2019-04-08T14:53:58Z</time>
      </trkpt>
      <trkpt lat="60.55342" lon="7.46727">
        <ele>1786.75</ele>
        <time>2019-04-08T14:54:00Z</time>
      </trkpt>
      <trkpt lat="60.55344" lon="7.4674">
        <ele>1788.19</ele>
        <time>2019-04-08T14:54:13Z</time>
      </trkpt>
      <trkpt lat="60.5534" lon="7.4673">
        <ele>1788.67</ele>
        <time>2019-04-08T14:54:19Z</time>
      </trkpt>
      <trkpt lat="60.55345" lon="7.46699">
        <ele>1789.15</ele>
        <time>2019-04-08T14:54:25Z</time>
      </trkpt>
      <trkpt lat="60.55349" lon="7.4668">
        <ele>1789.15</ele>
        <time>2019-04-08T14:54:29Z</time>
      </trkpt>
      <trkpt lat="60.55352" lon="7.46664">
        <ele>1789.63</ele>
        <time>2019-04-08T14:54:33Z</time>
      </trkpt>
      <trkpt lat="60.55362" lon="7.46638">
        <ele>1790.11</ele>
        <time>2019-04-08T14:54:43Z</time>
      </trkpt>
      <trkpt lat="60.55368" lon="7.46618">
        <ele>1790.11</ele>
        <time>2019-04-08T14:54:50Z</time>
      </trkpt>
      <trkpt lat="60.55372" lon="7.46607">
        <ele>1790.11</ele>
        <time>2019-04-08T14:54:56Z</time>
      </trkpt>
      <trkpt lat="60.55368" lon="7.46595">
        <ele>1790.59</ele>
        <time>2019-04-08T14:55:04Z</time>
      </trkpt>
      <trkpt lat="60.55365" lon="7.46593">
        <ele>1790.59</ele>
        <time>2019-04-08T14:55:07Z</time>
      </trkpt>
      <trkpt lat="60.55362" lon="7.46577">
        <ele>1791.07</ele>
        <time>2019-04-08T14:55:16Z</time>
      </trkpt>
      <trkpt lat="60.55368" lon="7.46528">
        <ele>1792.03</ele>
        <time>2019-04-08T14:55:27Z</time>
      </trkpt>
      <trkpt lat="60.55368" lon="7.46529">
        <ele>1792.03</ele>
        <time>2019-04-08T14:55:28Z</time>
      </trkpt>
      <trkpt lat="60.55363" lon="7.46501">
        <ele>1792.52</ele>
        <time>2019-04-08T14:55:37Z</time>
      </trkpt>
      <trkpt lat="60.55363" lon="7.46444">
        <ele>1793.48</ele>
        <time>2019-04-08T14:55:46Z</time>
      </trkpt>
      <trkpt lat="60.55362" lon="7.46438">
        <ele>1793.48</ele>
        <time>2019-04-08T14:55:48Z</time>
      </trkpt>
      <trkpt lat="60.55368" lon="7.4638">
        <ele>1793.96</ele>
        <time>2019-04-08T14:55:56Z</time>
      </trkpt>
      <trkpt lat="60.5537" lon="7.46352">
        <ele>1794.44</ele>
        <time>2019-04-08T14:55:59Z</time>
      </trkpt>
      <trkpt lat="60.55377" lon="7.46315">
        <ele>1794.92</ele>
        <time>2019-04-08T14:56:03Z</time>
      </trkpt>
      <trkpt lat="60.5539" lon="7.46266">
        <ele>1794.92</ele>
        <time>2019-04-08T14:56:08Z</time>
      </trkpt>
      <trkpt lat="60.55396" lon="7.46243">
        <ele>1793</ele>
        <time>2019-04-08T14:56:12Z</time>
      </trkpt>
      <trkpt lat="60.55395" lon="7.46242">
        <ele>1793</ele>
        <time>2019-04-08T14:56:13Z</time>
      </trkpt>
      <trkpt lat="60.55388" lon="7.46259">
        <ele>1792.52</ele>
        <time>2019-04-08T14:56:22Z</time>
      </trkpt>
      <trkpt lat="60.55379" lon="7.46275">
        <ele>1793.48</ele>
        <time>2019-04-08T14:56:29Z</time>
      </trkpt>
      <trkpt lat="60.5537" lon="7.46286">
        <ele>1794.92</ele>
        <time>2019-04-08T14:56:34Z</time>
      </trkpt>
      <trkpt lat="60.55347" lon="7.46302">
        <ele>1795.88</ele>
        <time>2019-04-08T14:56:42Z</time>
      </trkpt>
      <trkpt lat="60.55339" lon="7.46314">
        <ele>1795.88</ele>
        <time>2019-04-08T14:56:44Z</time>
      </trkpt>
      <trkpt lat="60.5533" lon="7.46327">
        <ele>1796.84</ele>
        <time>2019-04-08T14:56:46Z</time>
      </trkpt>
      <trkpt lat="60.55315" lon="7.46359">
        <ele>1797.32</ele>
        <time>2019-04-08T14:56:50Z</time>
      </trkpt>
      <trkpt lat="60.55287" lon="7.46421">
        <ele>1797.8</ele>
        <time>2019-04-08T14:56:57Z</time>
      </trkpt>
      <trkpt lat="60.55281" lon="7.46448">
        <ele>1797.8</ele>
        <time>2019-04-08T14:57:00Z</time>
      </trkpt>
      <trkpt lat="60.55277" lon="7.46455">
        <ele>1798.76</ele>
        <time>2019-04-08T14:57:03Z</time>
      </trkpt>
      <trkpt lat="60.55275" lon="7.46442">
        <ele>1798.76</ele>
        <time>2019-04-08T14:57:07Z</time>
      </trkpt>
      <trkpt lat="60.55274" lon="7.46393">
        <ele>1800.21</ele>
        <time>2019-04-08T14:57:15Z</time>
      </trkpt>
      <trkpt lat="60.55276" lon="7.46344">
        <ele>1802.13</ele>
        <time>2019-04-08T14:57:22Z</time>
      </trkpt>
      <trkpt lat="60.55287" lon="7.46297">
        <ele>1802.61</ele>
        <time>2019-04-08T14:57:28Z</time>
      </trkpt>
      <trkpt lat="60.55292" lon="7.46278">
        <ele>1802.61</ele>
        <time>2019-04-08T14:57:30Z</time>
      </trkpt>
      <trkpt lat="60.553" lon="7.46218">
        <ele>1803.57</ele>
        <time>2019-04-08T14:57:36Z</time>
      </trkpt>
      <trkpt lat="60.55302" lon="7.46197">
        <ele>1803.57</ele>
        <time>2019-04-08T14:57:38Z</time>
      </trkpt>
      <trkpt lat="60.5531" lon="7.46151">
        <ele>1803.57</ele>
        <time>2019-04-08T14:57:43Z</time>
      </trkpt>
      <trkpt lat="60.55318" lon="7.46109">
        <ele>1803.09</ele>
        <time>2019-04-08T14:57:48Z</time>
      </trkpt>
      <trkpt lat="60.55322" lon="7.46092">
        <ele>1803.09</ele>
        <time>2019-04-08T14:57:50Z</time>
      </trkpt>
      <trkpt lat="60.55331" lon="7.46053">
        <ele>1801.65</ele>
        <time>2019-04-08T14:57:55Z</time>
      </trkpt>
      <trkpt lat="60.5533" lon="7.46038">
        <ele>1801.17</ele>
        <time>2019-04-08T14:57:58Z</time>
      </trkpt>
      <trkpt lat="60.55323" lon="7.46039">
        <ele>1800.69</ele>
        <time>2019-04-08T14:58:02Z</time>
      </trkpt>
      <trkpt lat="60.55319" lon="7.46037">
        <ele>1802.61</ele>
        <time>2019-04-08T14:58:04Z</time>
      </trkpt>
      <trkpt lat="60.55297" lon="7.46062">
        <ele>1804.53</ele>
        <time>2019-04-08T14:58:12Z</time>
      </trkpt>
      <trkpt lat="60.5529" lon="7.46072">
        <ele>1805.01</ele>
        <time>2019-04-08T14:58:15Z</time>
      </trkpt>
      <trkpt lat="60.5527" lon="7.46101">
        <ele>1806.94</ele>
        <time>2019-04-08T14:58:25Z</time>
      </trkpt>
      <trkpt lat="60.55257" lon="7.4612">
        <ele>1807.9</ele>
        <time>2019-04-08T14:58:37Z</time>
      </trkpt>
      <trkpt lat="60.55258" lon="7.46119">
        <ele>1807.9</ele>
        <time>2019-04-08T14:58:39Z</time>
      </trkpt>
      <trkpt lat="60.55258" lon="7.46096">
        <ele>1808.38</ele>
        <time>2019-04-08T14:58:44Z</time>
      </trkpt>
      <trkpt lat="60.55269" lon="7.46041">
        <ele>1808.86</ele>
        <time>2019-04-08T14:58:53Z</time>
      </trkpt>
      <trkpt lat="60.55273" lon="7.46024">
        <ele>1809.82</ele>
        <time>2019-04-08T14:58:55Z</time>
      </trkpt>
      <trkpt lat="60.55278" lon="7.45996">
        <ele>1807.9</ele>
        <time>2019-04-08T14:58:59Z</time>
      </trkpt>
      <trkpt lat="60.55276" lon="7.45985">
        <ele>1807.9</ele>
        <time>2019-04-08T14:59:01Z</time>
      </trkpt>
      <trkpt lat="60.55277" lon="7.4595">
        <ele>1809.34</ele>
        <time>2019-04-08T14:59:05Z</time>
      </trkpt>
      <trkpt lat="60.5528" lon="7.45939">
        <ele>1809.34</ele>
        <time>2019-04-08T14:59:06Z</time>
      </trkpt>
      <trkpt lat="60.55285" lon="7.45896">
        <ele>1809.34</ele>
        <time>2019-04-08T14:59:10Z</time>
      </trkpt>
      <trkpt lat="60.55292" lon="7.45865">
        <ele>1809.34</ele>
        <time>2019-04-08T14:59:13Z</time>
      </trkpt>
      <trkpt lat="60.55298" lon="7.45847">
        <ele>1807.9</ele>
        <time>2019-04-08T14:59:15Z</time>
      </trkpt>
      <trkpt lat="60.553" lon="7.45837">
        <ele>1806.45</ele>
        <time>2019-04-08T14:59:18Z</time>
      </trkpt>
      <trkpt lat="60.553" lon="7.45838">
        <ele>1806.45</ele>
        <time>2019-04-08T14:59:20Z</time>
      </trkpt>
      <trkpt lat="60.55297" lon="7.45846">
        <ele>1806.45</ele>
        <time>2019-04-08T14:59:27Z</time>
      </trkpt>
      <trkpt lat="60.55293" lon="7.45845">
        <ele>1807.42</ele>
        <time>2019-04-08T14:59:31Z</time>
      </trkpt>
      <trkpt lat="60.55284" lon="7.45852">
        <ele>1808.86</ele>
        <time>2019-04-08T14:59:44Z</time>
      </trkpt>
      <trkpt lat="60.55283" lon="7.45853">
        <ele>1808.86</ele>
        <time>2019-04-08T14:59:47Z</time>
      </trkpt>
      <trkpt lat="60.55276" lon="7.45848">
        <ele>1809.34</ele>
        <time>2019-04-08T14:59:52Z</time>
      </trkpt>
      <trkpt lat="60.55266" lon="7.45859">
        <ele>1810.3</ele>
        <time>2019-04-08T15:00:04Z</time>
      </trkpt>
      <trkpt lat="60.55255" lon="7.45867">
        <ele>1811.74</ele>
        <time>2019-04-08T15:00:11Z</time>
      </trkpt>
      <trkpt lat="60.55249" lon="7.45878">
        <ele>1812.7</ele>
        <time>2019-04-08T15:00:19Z</time>
      </trkpt>
      <trkpt lat="60.5523" lon="7.45898">
        <ele>1814.15</ele>
        <time>2019-04-08T15:00:29Z</time>
      </trkpt>
      <trkpt lat="60.55223" lon="7.459">
        <ele>1814.15</ele>
        <time>2019-04-08T15:00:32Z</time>
      </trkpt>
      <trkpt lat="60.55199" lon="7.45913">
        <ele>1816.07</ele>
        <time>2019-04-08T15:00:38Z</time>
      </trkpt>
      <trkpt lat="60.55174" lon="7.45926">
        <ele>1817.99</ele>
        <time>2019-04-08T15:00:43Z</time>
      </trkpt>
      <trkpt lat="60.55154" lon="7.45947">
        <ele>1818.95</ele>
        <time>2019-04-08T15:00:47Z</time>
      </trkpt>
      <trkpt lat="60.55126" lon="7.45958">
        <ele>1820.87</ele>
        <time>2019-04-08T15:00:55Z</time>
      </trkpt>
      <trkpt lat="60.55116" lon="7.45975">
        <ele>1820.87</ele>
        <time>2019-04-08T15:00:59Z</time>
      </trkpt>
      <trkpt lat="60.55106" lon="7.46003">
        <ele>1820.87</ele>
        <time>2019-04-08T15:01:06Z</time>
      </trkpt>
      <trkpt lat="60.55111" lon="7.4595">
        <ele>1822.32</ele>
        <time>2019-04-08T15:01:16Z</time>
      </trkpt>
      <trkpt lat="60.55111" lon="7.45925">
        <ele>1823.76</ele>
        <time>2019-04-08T15:01:22Z</time>
      </trkpt>
      <trkpt lat="60.55113" lon="7.45885">
        <ele>1824.72</ele>
        <time>2019-04-08T15:01:28Z</time>
      </trkpt>
      <trkpt lat="60.55115" lon="7.45867">
        <ele>1825.2</ele>
        <time>2019-04-08T15:01:31Z</time>
      </trkpt>
      <trkpt lat="60.5512" lon="7.45845">
        <ele>1825.68</ele>
        <time>2019-04-08T15:01:34Z</time>
      </trkpt>
      <trkpt lat="60.55158" lon="7.45724">
        <ele>1826.64</ele>
        <time>2019-04-08T15:01:48Z</time>
      </trkpt>
      <trkpt lat="60.55162" lon="7.45716">
        <ele>1826.64</ele>
        <time>2019-04-08T15:01:49Z</time>
      </trkpt>
      <trkpt lat="60.55184" lon="7.45678">
        <ele>1823.76</ele>
        <time>2019-04-08T15:01:55Z</time>
      </trkpt>
      <trkpt lat="60.55185" lon="7.45667">
        <ele>1823.28</ele>
        <time>2019-04-08T15:01:59Z</time>
      </trkpt>
      <trkpt lat="60.55174" lon="7.4567">
        <ele>1823.28</ele>
        <time>2019-04-08T15:02:08Z</time>
      </trkpt>
      <trkpt lat="60.55173" lon="7.45669">
        <ele>1824.72</ele>
        <time>2019-04-08T15:02:09Z</time>
      </trkpt>
      <trkpt lat="60.55165" lon="7.45677">
        <ele>1825.2</ele>
        <time>2019-04-08T15:02:14Z</time>
      </trkpt>
      <trkpt lat="60.55157" lon="7.4569">
        <ele>1825.2</ele>
        <time>2019-04-08T15:02:18Z</time>
      </trkpt>
      <trkpt lat="60.5515" lon="7.45691">
        <ele>1826.64</ele>
        <time>2019-04-08T15:02:23Z</time>
      </trkpt>
      <trkpt lat="60.55131" lon="7.45704">
        <ele>1827.6</ele>
        <time>2019-04-08T15:02:31Z</time>
      </trkpt>
      <trkpt lat="60.55122" lon="7.45718">
        <ele>1828.56</ele>
        <time>2019-04-08T15:02:39Z</time>
      </trkpt>
      <trkpt lat="60.55104" lon="7.45724">
        <ele>1829.05</ele>
        <time>2019-04-08T15:02:47Z</time>
      </trkpt>
      <trkpt lat="60.55096" lon="7.45735">
        <ele>1829.05</ele>
        <time>2019-04-08T15:02:49Z</time>
      </trkpt>
      <trkpt lat="60.55062" lon="7.45755">
        <ele>1830.97</ele>
        <time>2019-04-08T15:02:59Z</time>
      </trkpt>
      <trkpt lat="60.55037" lon="7.45774">
        <ele>1831.45</ele>
        <time>2019-04-08T15:03:08Z</time>
      </trkpt>
      <trkpt lat="60.5502" lon="7.45816">
        <ele>1830.01</ele>
        <time>2019-04-08T15:03:16Z</time>
      </trkpt>
      <trkpt lat="60.54997" lon="7.45872">
        <ele>1827.6</ele>
        <time>2019-04-08T15:03:23Z</time>
      </trkpt>
      <trkpt lat="60.54984" lon="7.45905">
        <ele>1826.16</ele>
        <time>2019-04-08T15:03:26Z</time>
      </trkpt>
      <trkpt lat="60.5498" lon="7.45915">
        <ele>1825.2</ele>
        <time>2019-04-08T15:03:27Z</time>
      </trkpt>
      <trkpt lat="60.5497" lon="7.45935">
        <ele>1823.76</ele>
        <time>2019-04-08T15:03:29Z</time>
      </trkpt>
      <trkpt lat="60.5495" lon="7.45975">
        <ele>1823.28</ele>
        <time>2019-04-08T15:03:35Z</time>
      </trkpt>
      <trkpt lat="60.54953" lon="7.45961">
        <ele>1824.72</ele>
        <time>2019-04-08T15:03:39Z</time>
      </trkpt>
      <trkpt lat="60.54954" lon="7.45958">
        <ele>1824.72</ele>
        <time>2019-04-08T15:03:41Z</time>
      </trkpt>
      <trkpt lat="60.54954" lon="7.45936">
        <ele>1825.68</ele>
        <time>2019-04-08T15:03:45Z</time>
      </trkpt>
      <trkpt lat="60.54955" lon="7.45915">
        <ele>1826.64</ele>
        <time>2019-04-08T15:03:50Z</time>
      </trkpt>
      <trkpt lat="60.54955" lon="7.4589">
        <ele>1828.56</ele>
        <time>2019-04-08T15:03:56Z</time>
      </trkpt>
      <trkpt lat="60.54956" lon="7.45871">
        <ele>1829.05</ele>
        <time>2019-04-08T15:04:06Z</time>
      </trkpt>
      <trkpt lat="60.54956" lon="7.45857">
        <ele>1830.01</ele>
        <time>2019-04-08T15:04:11Z</time>
      </trkpt>
      <trkpt lat="60.54954" lon="7.45826">
        <ele>1831.45</ele>
        <time>2019-04-08T15:04:18Z</time>
      </trkpt>
      <trkpt lat="60.54953" lon="7.4582">
        <ele>1831.45</ele>
        <time>2019-04-08T15:04:20Z</time>
      </trkpt>
      <trkpt lat="60.54958" lon="7.45782">
        <ele>1833.37</ele>
        <time>2019-04-08T15:04:29Z</time>
      </trkpt>
      <trkpt lat="60.54965" lon="7.4576">
        <ele>1834.33</ele>
        <time>2019-04-08T15:04:33Z</time>
      </trkpt>
      <trkpt lat="60.54976" lon="7.45736">
        <ele>1834.81</ele>
        <time>2019-04-08T15:04:43Z</time>
      </trkpt>
      <trkpt lat="60.54977" lon="7.45732">
        <ele>1834.81</ele>
        <time>2019-04-08T15:04:48Z</time>
      </trkpt>
      <trkpt lat="60.54977" lon="7.45724">
        <ele>1835.29</ele>
        <time>2019-04-08T15:04:54Z</time>
      </trkpt>
      <trkpt lat="60.54976" lon="7.45719">
        <ele>1835.29</ele>
        <time>2019-04-08T15:04:58Z</time>
      </trkpt>
      <trkpt lat="60.54978" lon="7.45706">
        <ele>1836.26</ele>
        <time>2019-04-08T15:05:03Z</time>
      </trkpt>
      <trkpt lat="60.54979" lon="7.45696">
        <ele>1836.26</ele>
        <time>2019-04-08T15:05:07Z</time>
      </trkpt>
      <trkpt lat="60.54981" lon="7.45674">
        <ele>1836.74</ele>
        <time>2019-04-08T15:05:19Z</time>
      </trkpt>
      <trkpt lat="60.54981" lon="7.45674">
        <ele>1836.74</ele>
        <time>2019-04-08T15:05:20Z</time>
      </trkpt>
      <trkpt lat="60.54985" lon="7.45642">
        <ele>1837.7</ele>
        <time>2019-04-08T15:05:28Z</time>
      </trkpt>
      <trkpt lat="60.55005" lon="7.45612">
        <ele>1838.66</ele>
        <time>2019-04-08T15:05:37Z</time>
      </trkpt>
      <trkpt lat="60.55006" lon="7.45609">
        <ele>1838.66</ele>
        <time>2019-04-08T15:05:41Z</time>
      </trkpt>
      <trkpt lat="60.54987" lon="7.45632">
        <ele>1837.7</ele>
        <time>2019-04-08T15:05:51Z</time>
      </trkpt>
      <trkpt lat="60.54974" lon="7.45703">
        <ele>1834.81</ele>
        <time>2019-04-08T15:06:04Z</time>
      </trkpt>
      <trkpt lat="60.54974" lon="7.45732">
        <ele>1832.89</ele>
        <time>2019-04-08T15:06:07Z</time>
      </trkpt>
      <trkpt lat="60.54976" lon="7.45754">
        <ele>1831.45</ele>
        <time>2019-04-08T15:06:09Z</time>
      </trkpt>
      <trkpt lat="60.54979" lon="7.45777">
        <ele>1830.49</ele>
        <time>2019-04-08T15:06:11Z</time>
      </trkpt>
      <trkpt lat="60.54982" lon="7.45843">
        <ele>1826.64</ele>
        <time>2019-04-08T15:06:16Z</time>
      </trkpt>
      <trkpt lat="60.54983" lon="7.45889">
        <ele>1824.72</ele>
        <time>2019-04-08T15:06:19Z</time>
      </trkpt>
      <trkpt lat="60.54986" lon="7.45951">
        <ele>1822.32</ele>
        <time>2019-04-08T15:06:23Z</time>
      </trkpt>
      <trkpt lat="60.54993" lon="7.45996">
        <ele>1819.43</ele>
        <time>2019-04-08T15:06:26Z</time>
      </trkpt>
      <trkpt lat="60.55005" lon="7.46043">
        <ele>1817.99</ele>
        <time>2019-04-08T15:06:30Z</time>
      </trkpt>
      <trkpt lat="60.55015" lon="7.46067">
        <ele>1817.03</ele>
        <time>2019-04-08T15:06:33Z</time>
      </trkpt>
      <trkpt lat="60.55027" lon="7.46107">
        <ele>1815.11</ele>
        <time>2019-04-08T15:06:38Z</time>
      </trkpt>
      <trkpt lat="60.55032" lon="7.46126">
        <ele>1814.15</ele>
        <time>2019-04-08T15:06:40Z</time>
      </trkpt>
      <trkpt lat="60.55049" lon="7.46173">
        <ele>1812.22</ele>
        <time>2019-04-08T15:06:45Z</time>
      </trkpt>
      <trkpt lat="60.55061" lon="7.46197">
        <ele>1810.78</ele>
        <time>2019-04-08T15:06:48Z</time>
      </trkpt>
      <trkpt lat="60.55067" lon="7.46211">
        <ele>1809.82</ele>
        <time>2019-04-08T15:06:50Z</time>
      </trkpt>
      <trkpt lat="60.55072" lon="7.46228">
        <ele>1808.86</ele>
        <time>2019-04-08T15:06:52Z</time>
      </trkpt>
      <trkpt lat="60.55086" lon="7.46275">
        <ele>1805.97</ele>
        <time>2019-04-08T15:06:57Z</time>
      </trkpt>
      <trkpt lat="60.55097" lon="7.46317">
        <ele>1804.05</ele>
        <time>2019-04-08T15:07:01Z</time>
      </trkpt>
      <trkpt lat="60.55105" lon="7.46351">
        <ele>1802.61</ele>
        <time>2019-04-08T15:07:04Z</time>
      </trkpt>
      <trkpt lat="60.55115" lon="7.4638">
        <ele>1801.17</ele>
        <time>2019-04-08T15:07:07Z</time>
      </trkpt>
      <trkpt lat="60.55123" lon="7.46422">
        <ele>1799.73</ele>
        <time>2019-04-08T15:07:11Z</time>
      </trkpt>
      <trkpt lat="60.55135" lon="7.46468">
        <ele>1796.36</ele>
        <time>2019-04-08T15:07:15Z</time>
      </trkpt>
      <trkpt lat="60.55157" lon="7.46544">
        <ele>1793.96</ele>
        <time>2019-04-08T15:07:22Z</time>
      </trkpt>
      <trkpt lat="60.55172" lon="7.46593">
        <ele>1793.48</ele>
        <time>2019-04-08T15:07:27Z</time>
      </trkpt>
      <trkpt lat="60.55179" lon="7.46623">
        <ele>1791.07</ele>
        <time>2019-04-08T15:07:30Z</time>
      </trkpt>
      <trkpt lat="60.55194" lon="7.4668">
        <ele>1788.67</ele>
        <time>2019-04-08T15:07:36Z</time>
      </trkpt>
      <trkpt lat="60.55215" lon="7.4676">
        <ele>1787.23</ele>
        <time>2019-04-08T15:07:47Z</time>
      </trkpt>
      <trkpt lat="60.55224" lon="7.46799">
        <ele>1784.82</ele>
        <time>2019-04-08T15:07:52Z</time>
      </trkpt>
      <trkpt lat="60.55232" lon="7.46832">
        <ele>1783.86</ele>
        <time>2019-04-08T15:07:56Z</time>
      </trkpt>
      <trkpt lat="60.55238" lon="7.46847">
        <ele>1782.9</ele>
        <time>2019-04-08T15:07:58Z</time>
      </trkpt>
      <trkpt lat="60.55253" lon="7.46909">
        <ele>1781.46</ele>
        <time>2019-04-08T15:08:06Z</time>
      </trkpt>
      <trkpt lat="60.55267" lon="7.46949">
        <ele>1781.46</ele>
        <time>2019-04-08T15:08:16Z</time>
      </trkpt>
      <trkpt lat="60.55267" lon="7.46949">
        <ele>1782.42</ele>
        <time>2019-04-08T15:08:21Z</time>
      </trkpt>
      <trkpt lat="60.55267" lon="7.46949">
        <ele>1782.42</ele>
        <time>2019-04-08T15:08:45Z</time>
      </trkpt>
      <trkpt lat="60.55267" lon="7.4695">
        <ele>1782.42</ele>
        <time>2019-04-08T15:09:12Z</time>
      </trkpt>
      <trkpt lat="60.55266" lon="7.46951">
        <ele>1782.42</ele>
        <time>2019-04-08T15:09:28Z</time>
      </trkpt>
      <trkpt lat="60.55264" lon="7.46951">
        <ele>1783.38</ele>
        <time>2019-04-08T15:09:40Z</time>
      </trkpt>
      <trkpt lat="60.55264" lon="7.46952">
        <ele>1781.94</ele>
        <time>2019-04-08T15:09:46Z</time>
      </trkpt>
      <trkpt lat="60.55266" lon="7.46954">
        <ele>1778.1</ele>
        <time>2019-04-08T15:10:08Z</time>
      </trkpt>
      <trkpt lat="60.55266" lon="7.46956">
        <ele>1780.02</ele>
        <time>2019-04-08T15:10:09Z</time>
      </trkpt>
      <trkpt lat="60.55266" lon="7.46957">
        <ele>1787.23</ele>
        <time>2019-04-08T15:10:10Z</time>
      </trkpt>
      <trkpt lat="60.55267" lon="7.46958">
        <ele>1781.94</ele>
        <time>2019-04-08T15:10:11Z</time>
      </trkpt>
      <trkpt lat="60.55266" lon="7.4695">
        <ele>1781.46</ele>
        <time>2019-04-08T15:10:40Z</time>
      </trkpt>
      <trkpt lat="60.55266" lon="7.46949">
        <ele>1782.42</ele>
        <time>2019-04-08T15:11:09Z</time>
      </trkpt>
      <trkpt lat="60.55266" lon="7.46949">
        <ele>1778.58</ele>
        <time>2019-04-08T15:11:20Z</time>
      </trkpt>
      <trkpt lat="60.55266" lon="7.4695">
        <ele>1781.94</ele>
        <time>2019-04-08T15:11:21Z</time>
      </trkpt>
      <trkpt lat="60.55265" lon="7.46949">
        <ele>1781.94</ele>
        <time>2019-04-08T15:12:00Z</time>
      </trkpt>
      <trkpt lat="60.55265" lon="7.46949">
        <ele>1781.94</ele>
        <time>2019-04-08T15:12:28Z</time>
      </trkpt>
      <trkpt lat="60.55266" lon="7.46951">
        <ele>1780.98</ele>
        <time>2019-04-08T15:12:55Z</time>
      </trkpt>
      <trkpt lat="60.55265" lon="7.4695">
        <ele>1780.98</ele>
        <time>2019-04-08T15:13:24Z</time>
      </trkpt>
      <trkpt lat="60.55265" lon="7.46951">
        <ele>1780.98</ele>
        <time>2019-04-08T15:13:59Z</time>
      </trkpt>
      <trkpt lat="60.55265" lon="7.46952">
        <ele>1784.34</ele>
        <time>2019-04-08T15:14:29Z</time>
      </trkpt>
      <trkpt lat="60.55266" lon="7.46951">
        <ele>1781.94</ele>
        <time>2019-04-08T15:14:52Z</time>
      </trkpt>
      <trkpt lat="60.55266" lon="7.46949">
        <ele>1772.81</ele>
        <time>2019-04-08T15:15:02Z</time>
      </trkpt>
      <trkpt lat="60.55266" lon="7.4695">
        <ele>1787.23</ele>
        <time>2019-04-08T15:15:03Z</time>
      </trkpt>
      <trkpt lat="60.55266" lon="7.46951">
        <ele>1783.86</ele>
        <time>2019-04-08T15:15:04Z</time>
      </trkpt>
      <trkpt lat="60.55266" lon="7.46951">
        <ele>1789.15</ele>
        <time>2019-04-08T15:15:05Z</time>
      </trkpt>
      <trkpt lat="60.55266" lon="7.46952">
        <ele>1782.9</ele>
        <time>2019-04-08T15:15:06Z</time>
      </trkpt>
      <trkpt lat="60.55266" lon="7.46953">
        <ele>1782.9</ele>
        <time>2019-04-08T15:15:29Z</time>
      </trkpt>
      <trkpt lat="60.55266" lon="7.46953">
        <ele>1781.94</ele>
        <time>2019-04-08T15:15:53Z</time>
      </trkpt>
      <trkpt lat="60.55258" lon="7.46953">
        <ele>1781.94</ele>
        <time>2019-04-08T15:16:09Z</time>
      </trkpt>
      <trkpt lat="60.5525" lon="7.4695">
        <ele>1781.46</ele>
        <time>2019-04-08T15:16:25Z</time>
      </trkpt>
      <trkpt lat="60.55246" lon="7.46948">
        <ele>1781.46</ele>
        <time>2019-04-08T15:16:41Z</time>
      </trkpt>
      <trkpt lat="60.55246" lon="7.46947">
        <ele>1781.46</ele>
        <time>2019-04-08T15:17:01Z</time>
      </trkpt>
      <trkpt lat="60.55246" lon="7.46948">
        <ele>1779.06</ele>
        <time>2019-04-08T15:17:08Z</time>
      </trkpt>
      <trkpt lat="60.55245" lon="7.46956">
        <ele>1780.98</ele>
        <time>2019-04-08T15:17:10Z</time>
      </trkpt>
      <trkpt lat="60.55245" lon="7.46959">
        <ele>1787.23</ele>
        <time>2019-04-08T15:17:11Z</time>
      </trkpt>
      <trkpt lat="60.55245" lon="7.46958">
        <ele>1784.82</ele>
        <time>2019-04-08T15:17:12Z</time>
      </trkpt>
      <trkpt lat="60.55245" lon="7.46955">
        <ele>1780.98</ele>
        <time>2019-04-08T15:17:13Z</time>
      </trkpt>
      <trkpt lat="60.55245" lon="7.46953">
        <ele>1786.75</ele>
        <time>2019-04-08T15:17:14Z</time>
      </trkpt>
      <trkpt lat="60.55246" lon="7.46953">
        <ele>1781.94</ele>
        <time>2019-04-08T15:17:15Z</time>
      </trkpt>
      <trkpt lat="60.55248" lon="7.46951">
        <ele>1781.46</ele>
        <time>2019-04-08T15:17:35Z</time>
      </trkpt>
      <trkpt lat="60.55245" lon="7.46949">
        <ele>1781.46</ele>
        <time>2019-04-08T15:17:50Z</time>
      </trkpt>
      <trkpt lat="60.55245" lon="7.4695">
        <ele>1780.98</ele>
        <time>2019-04-08T15:18:12Z</time>
      </trkpt>
      <trkpt lat="60.55245" lon="7.4695">
        <ele>1780.98</ele>
        <time>2019-04-08T15:18:13Z</time>
      </trkpt>
      <trkpt lat="60.55245" lon="7.46944">
        <ele>1780.98</ele>
        <time>2019-04-08T15:18:25Z</time>
      </trkpt>
      <trkpt lat="60.55244" lon="7.46941">
        <ele>1780.98</ele>
        <time>2019-04-08T15:18:37Z</time>
      </trkpt>
      <trkpt lat="60.55241" lon="7.46946">
        <ele>1780.98</ele>
        <time>2019-04-08T15:18:53Z</time>
      </trkpt>
      <trkpt lat="60.55241" lon="7.46943">
        <ele>1780.98</ele>
        <time>2019-04-08T15:19:09Z</time>
      </trkpt>
      <trkpt lat="60.55242" lon="7.46941">
        <ele>1780.98</ele>
        <time>2019-04-08T15:19:23Z</time>
      </trkpt>
      <trkpt lat="60.55243" lon="7.46942">
        <ele>1780.5</ele>
        <time>2019-04-08T15:19:38Z</time>
      </trkpt>
      <trkpt lat="60.55243" lon="7.46944">
        <ele>1780.5</ele>
        <time>2019-04-08T15:19:49Z</time>
      </trkpt>
      <trkpt lat="60.55243" lon="7.46943">
        <ele>1780.5</ele>
        <time>2019-04-08T15:20:03Z</time>
      </trkpt>
      <trkpt lat="60.55243" lon="7.46944">
        <ele>1781.94</ele>
        <time>2019-04-08T15:20:16Z</time>
      </trkpt>
      <trkpt lat="60.55243" lon="7.46946">
        <ele>1780.5</ele>
        <time>2019-04-08T15:20:31Z</time>
      </trkpt>
      <trkpt lat="60.55243" lon="7.46948">
        <ele>1780.98</ele>
        <time>2019-04-08T15:20:41Z</time>
      </trkpt>
      <trkpt lat="60.55243" lon="7.4695">
        <ele>1779.06</ele>
        <time>2019-04-08T15:21:15Z</time>
      </trkpt>
      <trkpt lat="60.5524" lon="7.46953">
        <ele>1779.54</ele>
        <time>2019-04-08T15:21:51Z</time>
      </trkpt>
      <trkpt lat="60.55243" lon="7.46948">
        <ele>1779.54</ele>
        <time>2019-04-08T15:22:26Z</time>
      </trkpt>
      <trkpt lat="60.55244" lon="7.46948">
        <ele>1780.98</ele>
        <time>2019-04-08T15:22:35Z</time>
      </trkpt>
      <trkpt lat="60.55244" lon="7.46947">
        <ele>1779.54</ele>
        <time>2019-04-08T15:22:37Z</time>
      </trkpt>
      <trkpt lat="60.55243" lon="7.46947">
        <ele>1780.98</ele>
        <time>2019-04-08T15:22:54Z</time>
      </trkpt>
      <trkpt lat="60.55241" lon="7.46949">
        <ele>1779.54</ele>
        <time>2019-04-08T15:23:18Z</time>
      </trkpt>
      <trkpt lat="60.5524" lon="7.46945">
        <ele>1780.98</ele>
        <time>2019-04-08T15:23:20Z</time>
      </trkpt>
      <trkpt lat="60.55241" lon="7.46948">
        <ele>1780.98</ele>
        <time>2019-04-08T15:23:33Z</time>
      </trkpt>
      <trkpt lat="60.55241" lon="7.4695">
        <ele>1777.13</ele>
        <time>2019-04-08T15:23:43Z</time>
      </trkpt>
      <trkpt lat="60.55242" lon="7.46951">
        <ele>1784.34</ele>
        <time>2019-04-08T15:23:44Z</time>
      </trkpt>
      <trkpt lat="60.55242" lon="7.46951">
        <ele>1780.98</ele>
        <time>2019-04-08T15:23:45Z</time>
      </trkpt>
      <trkpt lat="60.55242" lon="7.46952">
        <ele>1780.98</ele>
        <time>2019-04-08T15:23:46Z</time>
      </trkpt>
      <trkpt lat="60.55246" lon="7.46952">
        <ele>1780.98</ele>
        <time>2019-04-08T15:24:02Z</time>
      </trkpt>
      <trkpt lat="60.55248" lon="7.46951">
        <ele>1780.98</ele>
        <time>2019-04-08T15:24:32Z</time>
      </trkpt>
      <trkpt lat="60.55246" lon="7.4695">
        <ele>1780.98</ele>
        <time>2019-04-08T15:24:52Z</time>
      </trkpt>
      <trkpt lat="60.55246" lon="7.46953">
        <ele>1780.98</ele>
        <time>2019-04-08T15:24:54Z</time>
      </trkpt>
      <trkpt lat="60.55246" lon="7.46952">
        <ele>1781.46</ele>
        <time>2019-04-08T15:24:59Z</time>
      </trkpt>
      <trkpt lat="60.55246" lon="7.46951">
        <ele>1794.92</ele>
        <time>2019-04-08T15:25:02Z</time>
      </trkpt>
      <trkpt lat="60.55245" lon="7.46951">
        <ele>1783.86</ele>
        <time>2019-04-08T15:25:03Z</time>
      </trkpt>
      <trkpt lat="60.55244" lon="7.46954">
        <ele>1781.46</ele>
        <time>2019-04-08T15:25:06Z</time>
      </trkpt>
      <trkpt lat="60.55244" lon="7.46955">
        <ele>1763.2</ele>
        <time>2019-04-08T15:25:07Z</time>
      </trkpt>
      <trkpt lat="60.55245" lon="7.46955">
        <ele>1801.65</ele>
        <time>2019-04-08T15:25:08Z</time>
      </trkpt>
      <trkpt lat="60.55245" lon="7.46956">
        <ele>1781.94</ele>
        <time>2019-04-08T15:25:09Z</time>
      </trkpt>
      <trkpt lat="60.55246" lon="7.4696">
        <ele>1780.98</ele>
        <time>2019-04-08T15:25:30Z</time>
      </trkpt>
      <trkpt lat="60.55248" lon="7.46969">
        <ele>1780.98</ele>
        <time>2019-04-08T15:25:43Z</time>
      </trkpt>
      <trkpt lat="60.55246" lon="7.46985">
        <ele>1780.98</ele>
        <time>2019-04-08T15:25:57Z</time>
      </trkpt>
      <trkpt lat="60.55246" lon="7.46986">
        <ele>1781.46</ele>
        <time>2019-04-08T15:26:16Z</time>
      </trkpt>
      <trkpt lat="60.55246" lon="7.46985">
        <ele>1780.5</ele>
        <time>2019-04-08T15:26:22Z</time>
      </trkpt>
      <trkpt lat="60.55246" lon="7.46982">
        <ele>1781.46</ele>
        <time>2019-04-08T15:26:49Z</time>
      </trkpt>
      <trkpt lat="60.55246" lon="7.46984">
        <ele>1781.46</ele>
        <time>2019-04-08T15:27:15Z</time>
      </trkpt>
      <trkpt lat="60.55248" lon="7.46982">
        <ele>1767.52</ele>
        <time>2019-04-08T15:27:17Z</time>
      </trkpt>
      <trkpt lat="60.5525" lon="7.46981">
        <ele>1775.21</ele>
        <time>2019-04-08T15:27:18Z</time>
      </trkpt>
      <trkpt lat="60.55252" lon="7.46979">
        <ele>1784.82</ele>
        <time>2019-04-08T15:27:19Z</time>
      </trkpt>
      <trkpt lat="60.55255" lon="7.46976">
        <ele>1797.32</ele>
        <time>2019-04-08T15:27:20Z</time>
      </trkpt>
      <trkpt lat="60.55258" lon="7.46974">
        <ele>1781.46</ele>
        <time>2019-04-08T15:27:21Z</time>
      </trkpt>
      <trkpt lat="60.55256" lon="7.46976">
        <ele>1781.46</ele>
        <time>2019-04-08T15:27:22Z</time>
      </trkpt>
      <trkpt lat="60.55249" lon="7.46987">
        <ele>1781.46</ele>
        <time>2019-04-08T15:27:38Z</time>
      </trkpt>
      <trkpt lat="60.55239" lon="7.47038">
        <ele>1780.02</ele>
        <time>2019-04-08T15:27:53Z</time>
      </trkpt>
      <trkpt lat="60.55231" lon="7.47117">
        <ele>1778.58</ele>
        <time>2019-04-08T15:28:07Z</time>
      </trkpt>
      <trkpt lat="60.5523" lon="7.47149">
        <ele>1779.06</ele>
        <time>2019-04-08T15:28:17Z</time>
      </trkpt>
      <trkpt lat="60.55235" lon="7.47193">
        <ele>1778.58</ele>
        <time>2019-04-08T15:28:29Z</time>
      </trkpt>
      <trkpt lat="60.5525" lon="7.47262">
        <ele>1776.65</ele>
        <time>2019-04-08T15:28:43Z</time>
      </trkpt>
      <trkpt lat="60.55278" lon="7.47299">
        <ele>1774.25</ele>
        <time>2019-04-08T15:28:58Z</time>
      </trkpt>
      <trkpt lat="60.55284" lon="7.47304">
        <ele>1773.29</ele>
        <time>2019-04-08T15:29:00Z</time>
      </trkpt>
      <trkpt lat="60.55295" lon="7.47333">
        <ele>1770.41</ele>
        <time>2019-04-08T15:29:04Z</time>
      </trkpt>
      <trkpt lat="60.55307" lon="7.47369">
        <ele>1767.04</ele>
        <time>2019-04-08T15:29:08Z</time>
      </trkpt>
      <trkpt lat="60.5531" lon="7.47379">
        <ele>1764.64</ele>
        <time>2019-04-08T15:29:09Z</time>
      </trkpt>
      <trkpt lat="60.55324" lon="7.47398">
        <ele>1758.87</ele>
        <time>2019-04-08T15:29:13Z</time>
      </trkpt>
      <trkpt lat="60.55329" lon="7.47394">
        <ele>1758.87</ele>
        <time>2019-04-08T15:29:14Z</time>
      </trkpt>
      <trkpt lat="60.55338" lon="7.4739">
        <ele>1757.43</ele>
        <time>2019-04-08T15:29:16Z</time>
      </trkpt>
      <trkpt lat="60.55373" lon="7.47389">
        <ele>1753.1</ele>
        <time>2019-04-08T15:29:25Z</time>
      </trkpt>
      <trkpt lat="60.55377" lon="7.47389">
        <ele>1753.1</ele>
        <time>2019-04-08T15:29:26Z</time>
      </trkpt>
      <trkpt lat="60.55389" lon="7.47388">
        <ele>1751.66</ele>
        <time>2019-04-08T15:29:29Z</time>
      </trkpt>
      <trkpt lat="60.55402" lon="7.47419">
        <ele>1747.33</ele>
        <time>2019-04-08T15:29:34Z</time>
      </trkpt>
      <trkpt lat="60.55406" lon="7.47445">
        <ele>1741.57</ele>
        <time>2019-04-08T15:29:37Z</time>
      </trkpt>
      <trkpt lat="60.55415" lon="7.47464">
        <ele>1737.72</ele>
        <time>2019-04-08T15:29:40Z</time>
      </trkpt>
      <trkpt lat="60.55421" lon="7.47486">
        <ele>1732.43</ele>
        <time>2019-04-08T15:29:43Z</time>
      </trkpt>
      <trkpt lat="60.5543" lon="7.47508">
        <ele>1728.11</ele>
        <time>2019-04-08T15:29:46Z</time>
      </trkpt>
      <trkpt lat="60.55439" lon="7.47516">
        <ele>1723.3</ele>
        <time>2019-04-08T15:29:48Z</time>
      </trkpt>
      <trkpt lat="60.5545" lon="7.47515">
        <ele>1720.42</ele>
        <time>2019-04-08T15:29:50Z</time>
      </trkpt>
      <trkpt lat="60.55462" lon="7.47513">
        <ele>1719.94</ele>
        <time>2019-04-08T15:29:52Z</time>
      </trkpt>
      <trkpt lat="60.55477" lon="7.4751">
        <ele>1717.53</ele>
        <time>2019-04-08T15:29:55Z</time>
      </trkpt>
      <trkpt lat="60.55493" lon="7.47533">
        <ele>1711.76</ele>
        <time>2019-04-08T15:30:00Z</time>
      </trkpt>
      <trkpt lat="60.55498" lon="7.47537">
        <ele>1710.32</ele>
        <time>2019-04-08T15:30:01Z</time>
      </trkpt>
      <trkpt lat="60.55509" lon="7.47544">
        <ele>1709.84</ele>
        <time>2019-04-08T15:30:03Z</time>
      </trkpt>
      <trkpt lat="60.55534" lon="7.47544">
        <ele>1704.07</ele>
        <time>2019-04-08T15:30:09Z</time>
      </trkpt>
      <trkpt lat="60.5554" lon="7.47539">
        <ele>1702.63</ele>
        <time>2019-04-08T15:30:14Z</time>
      </trkpt>
      <trkpt lat="60.55543" lon="7.47562">
        <ele>1699.75</ele>
        <time>2019-04-08T15:30:18Z</time>
      </trkpt>
      <trkpt lat="60.55547" lon="7.47589">
        <ele>1694.46</ele>
        <time>2019-04-08T15:30:21Z</time>
      </trkpt>
      <trkpt lat="60.55555" lon="7.47608">
        <ele>1690.62</ele>
        <time>2019-04-08T15:30:24Z</time>
      </trkpt>
      <trkpt lat="60.55568" lon="7.47606">
        <ele>1687.25</ele>
        <time>2019-04-08T15:30:27Z</time>
      </trkpt>
      <trkpt lat="60.55574" lon="7.47602">
        <ele>1686.29</ele>
        <time>2019-04-08T15:30:31Z</time>
      </trkpt>
      <trkpt lat="60.5558" lon="7.47626">
        <ele>1682.44</ele>
        <time>2019-04-08T15:30:35Z</time>
      </trkpt>
      <trkpt lat="60.55584" lon="7.47639">
        <ele>1679.56</ele>
        <time>2019-04-08T15:30:37Z</time>
      </trkpt>
      <trkpt lat="60.55583" lon="7.47653">
        <ele>1678.12</ele>
        <time>2019-04-08T15:30:40Z</time>
      </trkpt>
      <trkpt lat="60.55589" lon="7.47665">
        <ele>1675.23</ele>
        <time>2019-04-08T15:30:43Z</time>
      </trkpt>
      <trkpt lat="60.55603" lon="7.47661">
        <ele>1672.35</ele>
        <time>2019-04-08T15:30:47Z</time>
      </trkpt>
      <trkpt lat="60.55614" lon="7.47672">
        <ele>1668.99</ele>
        <time>2019-04-08T15:30:54Z</time>
      </trkpt>
      <trkpt lat="60.55623" lon="7.47692">
        <ele>1665.14</ele>
        <time>2019-04-08T15:30:57Z</time>
      </trkpt>
      <trkpt lat="60.55641" lon="7.47692">
        <ele>1660.81</ele>
        <time>2019-04-08T15:31:00Z</time>
      </trkpt>
      <trkpt lat="60.55666" lon="7.47691">
        <ele>1657.93</ele>
        <time>2019-04-08T15:31:03Z</time>
      </trkpt>
      <trkpt lat="60.55683" lon="7.47691">
        <ele>1655.05</ele>
        <time>2019-04-08T15:31:05Z</time>
      </trkpt>
      <trkpt lat="60.55708" lon="7.47695">
        <ele>1653.12</ele>
        <time>2019-04-08T15:31:08Z</time>
      </trkpt>
      <trkpt lat="60.55724" lon="7.47695">
        <ele>1652.16</ele>
        <time>2019-04-08T15:31:10Z</time>
      </trkpt>
      <trkpt lat="60.55756" lon="7.47708">
        <ele>1650.72</ele>
        <time>2019-04-08T15:31:16Z</time>
      </trkpt>
      <trkpt lat="60.55784" lon="7.47722">
        <ele>1645.91</ele>
        <time>2019-04-08T15:31:21Z</time>
      </trkpt>
      <trkpt lat="60.5579" lon="7.47749">
        <ele>1643.99</ele>
        <time>2019-04-08T15:31:24Z</time>
      </trkpt>
      <trkpt lat="60.55803" lon="7.4779">
        <ele>1640.15</ele>
        <time>2019-04-08T15:31:29Z</time>
      </trkpt>
      <trkpt lat="60.55813" lon="7.47808">
        <ele>1636.78</ele>
        <time>2019-04-08T15:31:31Z</time>
      </trkpt>
      <trkpt lat="60.55826" lon="7.47833">
        <ele>1632.46</ele>
        <time>2019-04-08T15:31:34Z</time>
      </trkpt>
      <trkpt lat="60.55831" lon="7.47852">
        <ele>1631.49</ele>
        <time>2019-04-08T15:31:36Z</time>
      </trkpt>
      <trkpt lat="60.55833" lon="7.47871">
        <ele>1630.53</ele>
        <time>2019-04-08T15:31:38Z</time>
      </trkpt>
      <trkpt lat="60.55834" lon="7.47885">
        <ele>1630.53</ele>
        <time>2019-04-08T15:31:40Z</time>
      </trkpt>
      <trkpt lat="60.55837" lon="7.4789">
        <ele>1631.98</ele>
        <time>2019-04-08T15:31:44Z</time>
      </trkpt>
      <trkpt lat="60.55848" lon="7.47897">
        <ele>1629.09</ele>
        <time>2019-04-08T15:31:48Z</time>
      </trkpt>
      <trkpt lat="60.55859" lon="7.47917">
        <ele>1623.8</ele>
        <time>2019-04-08T15:31:50Z</time>
      </trkpt>
      <trkpt lat="60.55872" lon="7.47929">
        <ele>1621.88</ele>
        <time>2019-04-08T15:31:52Z</time>
      </trkpt>
      <trkpt lat="60.55898" lon="7.4796">
        <ele>1614.67</ele>
        <time>2019-04-08T15:31:56Z</time>
      </trkpt>
      <trkpt lat="60.55912" lon="7.47972">
        <ele>1612.75</ele>
        <time>2019-04-08T15:31:58Z</time>
      </trkpt>
      <trkpt lat="60.55939" lon="7.4798">
        <ele>1609.38</ele>
        <time>2019-04-08T15:32:03Z</time>
      </trkpt>
      <trkpt lat="60.55956" lon="7.47995">
        <ele>1606.02</ele>
        <time>2019-04-08T15:32:07Z</time>
      </trkpt>
      <trkpt lat="60.55966" lon="7.48008">
        <ele>1601.21</ele>
        <time>2019-04-08T15:32:09Z</time>
      </trkpt>
      <trkpt lat="60.55987" lon="7.48045">
        <ele>1594.48</ele>
        <time>2019-04-08T15:32:13Z</time>
      </trkpt>
      <trkpt lat="60.55999" lon="7.48058">
        <ele>1590.64</ele>
        <time>2019-04-08T15:32:15Z</time>
      </trkpt>
      <trkpt lat="60.56016" lon="7.48077">
        <ele>1585.83</ele>
        <time>2019-04-08T15:32:18Z</time>
      </trkpt>
      <trkpt lat="60.56028" lon="7.48098">
        <ele>1581.99</ele>
        <time>2019-04-08T15:32:20Z</time>
      </trkpt>
      <trkpt lat="60.56036" lon="7.48147">
        <ele>1579.1</ele>
        <time>2019-04-08T15:32:23Z</time>
      </trkpt>
      <trkpt lat="60.5604" lon="7.48162">
        <ele>1577.18</ele>
        <time>2019-04-08T15:32:24Z</time>
      </trkpt>
      <trkpt lat="60.56052" lon="7.48209">
        <ele>1574.3</ele>
        <time>2019-04-08T15:32:27Z</time>
      </trkpt>
      <trkpt lat="60.5608" lon="7.48247">
        <ele>1569.49</ele>
        <time>2019-04-08T15:32:31Z</time>
      </trkpt>
      <trkpt lat="60.56089" lon="7.48251">
        <ele>1566.61</ele>
        <time>2019-04-08T15:32:32Z</time>
      </trkpt>
      <trkpt lat="60.56153" lon="7.48269">
        <ele>1565.16</ele>
        <time>2019-04-08T15:32:41Z</time>
      </trkpt>
      <trkpt lat="60.56201" lon="7.48282">
        <ele>1564.68</ele>
        <time>2019-04-08T15:32:55Z</time>
      </trkpt>
      <trkpt lat="60.56231" lon="7.48298">
        <ele>1561.32</ele>
        <time>2019-04-08T15:33:02Z</time>
      </trkpt>
      <trkpt lat="60.56236" lon="7.483">
        <ele>1560.84</ele>
        <time>2019-04-08T15:33:03Z</time>
      </trkpt>
      <trkpt lat="60.56254" lon="7.48303">
        <ele>1559.4</ele>
        <time>2019-04-08T15:33:06Z</time>
      </trkpt>
      <trkpt lat="60.5632" lon="7.48297">
        <ele>1555.55</ele>
        <time>2019-04-08T15:33:20Z</time>
      </trkpt>
      <trkpt lat="60.5636" lon="7.48287">
        <ele>1552.19</ele>
        <time>2019-04-08T15:33:27Z</time>
      </trkpt>
      <trkpt lat="60.56383" lon="7.48276">
        <ele>1548.82</ele>
        <time>2019-04-08T15:33:30Z</time>
      </trkpt>
      <trkpt lat="60.56399" lon="7.48268">
        <ele>1547.86</ele>
        <time>2019-04-08T15:33:32Z</time>
      </trkpt>
      <trkpt lat="60.56425" lon="7.48255">
        <ele>1543.53</ele>
        <time>2019-04-08T15:33:35Z</time>
      </trkpt>
      <trkpt lat="60.56472" lon="7.48229">
        <ele>1540.65</ele>
        <time>2019-04-08T15:33:41Z</time>
      </trkpt>
      <trkpt lat="60.56496" lon="7.48225">
        <ele>1544.01</ele>
        <time>2019-04-08T15:33:48Z</time>
      </trkpt>
      <trkpt lat="60.56508" lon="7.48227">
        <ele>1543.53</ele>
        <time>2019-04-08T15:33:53Z</time>
      </trkpt>
      <trkpt lat="60.56518" lon="7.48231">
        <ele>1544.01</ele>
        <time>2019-04-08T15:34:03Z</time>
      </trkpt>
      <trkpt lat="60.56525" lon="7.48235">
        <ele>1544.01</ele>
        <time>2019-04-08T15:34:17Z</time>
      </trkpt>
      <trkpt lat="60.5653" lon="7.4824">
        <ele>1544.5</ele>
        <time>2019-04-08T15:34:30Z</time>
      </trkpt>
      <trkpt lat="60.56534" lon="7.48242">
        <ele>1544.5</ele>
        <time>2019-04-08T15:34:47Z</time>
      </trkpt>
      <trkpt lat="60.56539" lon="7.48247">
        <ele>1543.05</ele>
        <time>2019-04-08T15:34:49Z</time>
      </trkpt>
      <trkpt lat="60.56546" lon="7.48237">
        <ele>1539.69</ele>
        <time>2019-04-08T15:34:53Z</time>
      </trkpt>
      <trkpt lat="60.56548" lon="7.48233">
        <ele>1539.21</ele>
        <time>2019-04-08T15:34:55Z</time>
      </trkpt>
      <trkpt lat="60.56548" lon="7.48231">
        <ele>1539.21</ele>
        <time>2019-04-08T15:35:14Z</time>
      </trkpt>
      <trkpt lat="60.56548" lon="7.48231">
        <ele>1539.21</ele>
        <time>2019-04-08T15:35:16Z</time>
      </trkpt>
      <trkpt lat="60.56557" lon="7.48241">
        <ele>1535.36</ele>
        <time>2019-04-08T15:35:19Z</time>
      </trkpt>
      <trkpt lat="60.56562" lon="7.4826">
        <ele>1532</ele>
        <time>2019-04-08T15:35:21Z</time>
      </trkpt>
      <trkpt lat="60.56574" lon="7.48291">
        <ele>1526.23</ele>
        <time>2019-04-08T15:35:24Z</time>
      </trkpt>
      <trkpt lat="60.56587" lon="7.48317">
        <ele>1522.39</ele>
        <time>2019-04-08T15:35:27Z</time>
      </trkpt>
      <trkpt lat="60.566" lon="7.48338">
        <ele>1519.02</ele>
        <time>2019-04-08T15:35:30Z</time>
      </trkpt>
      <trkpt lat="60.56609" lon="7.48342">
        <ele>1515.66</ele>
        <time>2019-04-08T15:35:32Z</time>
      </trkpt>
      <trkpt lat="60.56621" lon="7.48347">
        <ele>1513.73</ele>
        <time>2019-04-08T15:35:35Z</time>
      </trkpt>
      <trkpt lat="60.56632" lon="7.48356">
        <ele>1509.41</ele>
        <time>2019-04-08T15:35:41Z</time>
      </trkpt>
      <trkpt lat="60.5664" lon="7.48365">
        <ele>1504.6</ele>
        <time>2019-04-08T15:35:44Z</time>
      </trkpt>
      <trkpt lat="60.56648" lon="7.48363">
        <ele>1500.76</ele>
        <time>2019-04-08T15:35:46Z</time>
      </trkpt>
      <trkpt lat="60.56654" lon="7.48374">
        <ele>1497.87</ele>
        <time>2019-04-08T15:35:48Z</time>
      </trkpt>
      <trkpt lat="60.56661" lon="7.48377">
        <ele>1494.03</ele>
        <time>2019-04-08T15:35:50Z</time>
      </trkpt>
      <trkpt lat="60.56669" lon="7.48386">
        <ele>1490.18</ele>
        <time>2019-04-08T15:35:52Z</time>
      </trkpt>
      <trkpt lat="60.56675" lon="7.48391">
        <ele>1486.34</ele>
        <time>2019-04-08T15:35:54Z</time>
      </trkpt>
      <trkpt lat="60.56684" lon="7.48385">
        <ele>1482.97</ele>
        <time>2019-04-08T15:35:56Z</time>
      </trkpt>
      <trkpt lat="60.56693" lon="7.48385">
        <ele>1478.65</ele>
        <time>2019-04-08T15:35:58Z</time>
      </trkpt>
      <trkpt lat="60.56702" lon="7.48382">
        <ele>1475.28</ele>
        <time>2019-04-08T15:36:00Z</time>
      </trkpt>
      <trkpt lat="60.56715" lon="7.48385">
        <ele>1470.95</ele>
        <time>2019-04-08T15:36:03Z</time>
      </trkpt>
      <trkpt lat="60.56721" lon="7.48369">
        <ele>1467.59</ele>
        <time>2019-04-08T15:36:05Z</time>
      </trkpt>
      <trkpt lat="60.56734" lon="7.48345">
        <ele>1463.74</ele>
        <time>2019-04-08T15:36:09Z</time>
      </trkpt>
      <trkpt lat="60.56745" lon="7.48342">
        <ele>1459.9</ele>
        <time>2019-04-08T15:36:11Z</time>
      </trkpt>
      <trkpt lat="60.56755" lon="7.48337">
        <ele>1456.53</ele>
        <time>2019-04-08T15:36:13Z</time>
      </trkpt>
      <trkpt lat="60.56761" lon="7.48327">
        <ele>1453.17</ele>
        <time>2019-04-08T15:36:15Z</time>
      </trkpt>
      <trkpt lat="60.56766" lon="7.48297">
        <ele>1451.25</ele>
        <time>2019-04-08T15:36:19Z</time>
      </trkpt>
      <trkpt lat="60.56777" lon="7.48279">
        <ele>1447.88</ele>
        <time>2019-04-08T15:36:22Z</time>
      </trkpt>
      <trkpt lat="60.56787" lon="7.4827">
        <ele>1444.52</ele>
        <time>2019-04-08T15:36:24Z</time>
      </trkpt>
      <trkpt lat="60.56804" lon="7.4827">
        <ele>1438.27</ele>
        <time>2019-04-08T15:36:27Z</time>
      </trkpt>
      <trkpt lat="60.56809" lon="7.48276">
        <ele>1435.87</ele>
        <time>2019-04-08T15:36:28Z</time>
      </trkpt>
      <trkpt lat="60.56818" lon="7.48293">
        <ele>1431.54</ele>
        <time>2019-04-08T15:36:31Z</time>
      </trkpt>
      <trkpt lat="60.56817" lon="7.48297">
        <ele>1428.66</ele>
        <time>2019-04-08T15:36:41Z</time>
      </trkpt>
      <trkpt lat="60.56815" lon="7.48298">
        <ele>1429.14</ele>
        <time>2019-04-08T15:37:02Z</time>
      </trkpt>
      <trkpt lat="60.56816" lon="7.48298">
        <ele>1429.14</ele>
        <time>2019-04-08T15:37:03Z</time>
      </trkpt>
      <trkpt lat="60.56829" lon="7.48294">
        <ele>1424.81</ele>
        <time>2019-04-08T15:37:07Z</time>
      </trkpt>
      <trkpt lat="60.56834" lon="7.48298">
        <ele>1422.89</ele>
        <time>2019-04-08T15:37:08Z</time>
      </trkpt>
      <trkpt lat="60.56848" lon="7.48322">
        <ele>1415.2</ele>
        <time>2019-04-08T15:37:12Z</time>
      </trkpt>
      <trkpt lat="60.56855" lon="7.48329">
        <ele>1410.87</ele>
        <time>2019-04-08T15:37:14Z</time>
      </trkpt>
      <trkpt lat="60.56864" lon="7.48333">
        <ele>1405.58</ele>
        <time>2019-04-08T15:37:16Z</time>
      </trkpt>
      <trkpt lat="60.56871" lon="7.48342">
        <ele>1398.37</ele>
        <time>2019-04-08T15:37:18Z</time>
      </trkpt>
      <trkpt lat="60.56877" lon="7.48344">
        <ele>1402.7</ele>
        <time>2019-04-08T15:37:19Z</time>
      </trkpt>
      <trkpt lat="60.56881" lon="7.48351">
        <ele>1395.01</ele>
        <time>2019-04-08T15:37:20Z</time>
      </trkpt>
      <trkpt lat="60.56885" lon="7.48372">
        <ele>1390.68</ele>
        <time>2019-04-08T15:37:22Z</time>
      </trkpt>
      <trkpt lat="60.56896" lon="7.48392">
        <ele>1384.92</ele>
        <time>2019-04-08T15:37:24Z</time>
      </trkpt>
      <trkpt lat="60.56902" lon="7.48417">
        <ele>1381.07</ele>
        <time>2019-04-08T15:37:26Z</time>
      </trkpt>
      <trkpt lat="60.56911" lon="7.48434">
        <ele>1376.75</ele>
        <time>2019-04-08T15:37:28Z</time>
      </trkpt>
      <trkpt lat="60.56912" lon="7.48457">
        <ele>1373.38</ele>
        <time>2019-04-08T15:37:30Z</time>
      </trkpt>
      <trkpt lat="60.56913" lon="7.48484">
        <ele>1370.02</ele>
        <time>2019-04-08T15:37:32Z</time>
      </trkpt>
      <trkpt lat="60.56917" lon="7.48494">
        <ele>1367.61</ele>
        <time>2019-04-08T15:37:33Z</time>
      </trkpt>
      <trkpt lat="60.56947" lon="7.48524">
        <ele>1359.44</ele>
        <time>2019-04-08T15:37:37Z</time>
      </trkpt>
      <trkpt lat="60.56967" lon="7.48546">
        <ele>1358</ele>
        <time>2019-04-08T15:37:40Z</time>
      </trkpt>
      <trkpt lat="60.56983" lon="7.48574">
        <ele>1354.15</ele>
        <time>2019-04-08T15:37:43Z</time>
      </trkpt>
      <trkpt lat="60.56995" lon="7.48622">
        <ele>1352.23</ele>
        <time>2019-04-08T15:37:47Z</time>
      </trkpt>
      <trkpt lat="60.56996" lon="7.4865">
        <ele>1350.79</ele>
        <time>2019-04-08T15:37:49Z</time>
      </trkpt>
      <trkpt lat="60.57007" lon="7.48687">
        <ele>1346.94</ele>
        <time>2019-04-08T15:37:52Z</time>
      </trkpt>
      <trkpt lat="60.57013" lon="7.48697">
        <ele>1345.02</ele>
        <time>2019-04-08T15:37:53Z</time>
      </trkpt>
      <trkpt lat="60.57025" lon="7.48725">
        <ele>1341.66</ele>
        <time>2019-04-08T15:37:55Z</time>
      </trkpt>
      <trkpt lat="60.57051" lon="7.48754">
        <ele>1337.81</ele>
        <time>2019-04-08T15:37:59Z</time>
      </trkpt>
      <trkpt lat="60.57084" lon="7.4876">
        <ele>1333.01</ele>
        <time>2019-04-08T15:38:03Z</time>
      </trkpt>
      <trkpt lat="60.57092" lon="7.48761">
        <ele>1332.04</ele>
        <time>2019-04-08T15:38:04Z</time>
      </trkpt>
      <trkpt lat="60.57105" lon="7.48766">
        <ele>1332.04</ele>
        <time>2019-04-08T15:38:06Z</time>
      </trkpt>
      <trkpt lat="60.57165" lon="7.48807">
        <ele>1331.56</ele>
        <time>2019-04-08T15:38:20Z</time>
      </trkpt>
      <trkpt lat="60.57169" lon="7.48809">
        <ele>1331.56</ele>
        <time>2019-04-08T15:38:21Z</time>
      </trkpt>
      <trkpt lat="60.5719" lon="7.4884">
        <ele>1328.2</ele>
        <time>2019-04-08T15:38:26Z</time>
      </trkpt>
      <trkpt lat="60.57212" lon="7.4886">
        <ele>1323.39</ele>
        <time>2019-04-08T15:38:30Z</time>
      </trkpt>
      <trkpt lat="60.57229" lon="7.48867">
        <ele>1321.47</ele>
        <time>2019-04-08T15:38:33Z</time>
      </trkpt>
      <trkpt lat="60.57233" lon="7.48876">
        <ele>1320.99</ele>
        <time>2019-04-08T15:38:34Z</time>
      </trkpt>
      <trkpt lat="60.57252" lon="7.48904">
        <ele>1316.66</ele>
        <time>2019-04-08T15:38:38Z</time>
      </trkpt>
      <trkpt lat="60.57258" lon="7.48926">
        <ele>1313.3</ele>
        <time>2019-04-08T15:38:40Z</time>
      </trkpt>
      <trkpt lat="60.57264" lon="7.4896">
        <ele>1309.93</ele>
        <time>2019-04-08T15:38:43Z</time>
      </trkpt>
      <trkpt lat="60.5727" lon="7.48968">
        <ele>1308.01</ele>
        <time>2019-04-08T15:38:44Z</time>
      </trkpt>
      <trkpt lat="60.57294" lon="7.48993">
        <ele>1301.28</ele>
        <time>2019-04-08T15:38:47Z</time>
      </trkpt>
      <trkpt lat="60.57305" lon="7.49005">
        <ele>1296.96</ele>
        <time>2019-04-08T15:38:48Z</time>
      </trkpt>
      <trkpt lat="60.57324" lon="7.49032">
        <ele>1294.55</ele>
        <time>2019-04-08T15:38:50Z</time>
      </trkpt>
      <trkpt lat="60.57342" lon="7.49054">
        <ele>1291.67</ele>
        <time>2019-04-08T15:38:52Z</time>
      </trkpt>
      <trkpt lat="60.57377" lon="7.49098">
        <ele>1288.78</ele>
        <time>2019-04-08T15:38:56Z</time>
      </trkpt>
      <trkpt lat="60.57393" lon="7.49119">
        <ele>1286.86</ele>
        <time>2019-04-08T15:38:58Z</time>
      </trkpt>
      <trkpt lat="60.57408" lon="7.49142">
        <ele>1283.98</ele>
        <time>2019-04-08T15:39:00Z</time>
      </trkpt>
      <trkpt lat="60.57415" lon="7.49155">
        <ele>1282.06</ele>
        <time>2019-04-08T15:39:01Z</time>
      </trkpt>
      <trkpt lat="60.57448" lon="7.49255">
        <ele>1280.13</ele>
        <time>2019-04-08T15:39:08Z</time>
      </trkpt>
      <trkpt lat="60.57472" lon="7.49332">
        <ele>1277.25</ele>
        <time>2019-04-08T15:39:14Z</time>
      </trkpt>
      <trkpt lat="60.57479" lon="7.49358">
        <ele>1276.77</ele>
        <time>2019-04-08T15:39:16Z</time>
      </trkpt>
      <trkpt lat="60.57496" lon="7.49507">
        <ele>1274.36</ele>
        <time>2019-04-08T15:39:28Z</time>
      </trkpt>
      <trkpt lat="60.57519" lon="7.49632">
        <ele>1273.4</ele>
        <time>2019-04-08T15:39:44Z</time>
      </trkpt>
      <trkpt lat="60.57547" lon="7.49711">
        <ele>1271.96</ele>
        <time>2019-04-08T15:39:58Z</time>
      </trkpt>
      <trkpt lat="60.57561" lon="7.49743">
        <ele>1270.52</ele>
        <time>2019-04-08T15:40:03Z</time>
      </trkpt>
      <trkpt lat="60.57599" lon="7.49828">
        <ele>1270.04</ele>
        <time>2019-04-08T15:40:18Z</time>
      </trkpt>
      <trkpt lat="60.57629" lon="7.49909">
        <ele>1268.6</ele>
        <time>2019-04-08T15:40:32Z</time>
      </trkpt>
      <trkpt lat="60.57661" lon="7.50017">
        <ele>1265.71</ele>
        <time>2019-04-08T15:40:48Z</time>
      </trkpt>
      <trkpt lat="60.57688" lon="7.50064">
        <ele>1262.35</ele>
        <time>2019-04-08T15:40:56Z</time>
      </trkpt>
      <trkpt lat="60.57689" lon="7.50066">
        <ele>1262.35</ele>
        <time>2019-04-08T15:40:57Z</time>
      </trkpt>
      <trkpt lat="60.57705" lon="7.5008">
        <ele>1259.46</ele>
        <time>2019-04-08T15:41:01Z</time>
      </trkpt>
      <trkpt lat="60.57759" lon="7.50144">
        <ele>1258.02</ele>
        <time>2019-04-08T15:41:17Z</time>
      </trkpt>
      <trkpt lat="60.57805" lon="7.50168">
        <ele>1256.58</ele>
        <time>2019-04-08T15:41:31Z</time>
      </trkpt>
      <trkpt lat="60.57841" lon="7.50173">
        <ele>1253.22</ele>
        <time>2019-04-08T15:41:40Z</time>
      </trkpt>
      <trkpt lat="60.57886" lon="7.50194">
        <ele>1250.33</ele>
        <time>2019-04-08T15:41:49Z</time>
      </trkpt>
      <trkpt lat="60.57905" lon="7.50205">
        <ele>1248.41</ele>
        <time>2019-04-08T15:41:53Z</time>
      </trkpt>
      <trkpt lat="60.57914" lon="7.50209">
        <ele>1248.41</ele>
        <time>2019-04-08T15:41:55Z</time>
      </trkpt>
      <trkpt lat="60.57923" lon="7.50215">
        <ele>1247.45</ele>
        <time>2019-04-08T15:41:57Z</time>
      </trkpt>
      <trkpt lat="60.57944" lon="7.5024">
        <ele>1246.49</ele>
        <time>2019-04-08T15:42:02Z</time>
      </trkpt>
      <trkpt lat="60.57992" lon="7.50299">
        <ele>1244.56</ele>
        <time>2019-04-08T15:42:18Z</time>
      </trkpt>
      <trkpt lat="60.58031" lon="7.50306">
        <ele>1242.64</ele>
        <time>2019-04-08T15:42:31Z</time>
      </trkpt>
      <trkpt lat="60.58069" lon="7.50314">
        <ele>1241.68</ele>
        <time>2019-04-08T15:42:44Z</time>
      </trkpt>
      <trkpt lat="60.58098" lon="7.5031">
        <ele>1242.64</ele>
        <time>2019-04-08T15:42:57Z</time>
      </trkpt>
      <trkpt lat="60.58099" lon="7.50309">
        <ele>1242.64</ele>
        <time>2019-04-08T15:42:58Z</time>
      </trkpt>
      <trkpt lat="60.58104" lon="7.50307">
        <ele>1241.2</ele>
        <time>2019-04-08T15:43:01Z</time>
      </trkpt>
      <trkpt lat="60.58137" lon="7.50287">
        <ele>1240.24</ele>
        <time>2019-04-08T15:43:14Z</time>
      </trkpt>
      <trkpt lat="60.58164" lon="7.50278">
        <ele>1236.87</ele>
        <time>2019-04-08T15:43:22Z</time>
      </trkpt>
      <trkpt lat="60.58169" lon="7.50276">
        <ele>1236.87</ele>
        <time>2019-04-08T15:43:23Z</time>
      </trkpt>
      <trkpt lat="60.58174" lon="7.50274">
        <ele>1235.91</ele>
        <time>2019-04-08T15:43:24Z</time>
      </trkpt>
      <trkpt lat="60.58195" lon="7.50273">
        <ele>1237.35</ele>
        <time>2019-04-08T15:43:33Z</time>
      </trkpt>
      <trkpt lat="60.58194" lon="7.50274">
        <ele>1237.35</ele>
        <time>2019-04-08T15:43:47Z</time>
      </trkpt>
      <trkpt lat="60.58193" lon="7.5027">
        <ele>1233.03</ele>
        <time>2019-04-08T15:43:49Z</time>
      </trkpt>
      <trkpt lat="60.58193" lon="7.5027">
        <ele>1237.83</ele>
        <time>2019-04-08T15:43:50Z</time>
      </trkpt>
      <trkpt lat="60.58193" lon="7.50271">
        <ele>1235.43</ele>
        <time>2019-04-08T15:43:51Z</time>
      </trkpt>
      <trkpt lat="60.58193" lon="7.50273">
        <ele>1238.8</ele>
        <time>2019-04-08T15:43:52Z</time>
      </trkpt>
      <trkpt lat="60.58193" lon="7.50275">
        <ele>1246.97</ele>
        <time>2019-04-08T15:43:53Z</time>
      </trkpt>
      <trkpt lat="60.58195" lon="7.50279">
        <ele>1234.95</ele>
        <time>2019-04-08T15:43:54Z</time>
      </trkpt>
      <trkpt lat="60.58196" lon="7.50282">
        <ele>1236.87</ele>
        <time>2019-04-08T15:43:55Z</time>
      </trkpt>
      <trkpt lat="60.58195" lon="7.5028">
        <ele>1243.6</ele>
        <time>2019-04-08T15:43:58Z</time>
      </trkpt>
      <trkpt lat="60.58196" lon="7.50281">
        <ele>1234.95</ele>
        <time>2019-04-08T15:43:59Z</time>
      </trkpt>
      <trkpt lat="60.58195" lon="7.50279">
        <ele>1238.8</ele>
        <time>2019-04-08T15:44:00Z</time>
      </trkpt>
      <trkpt lat="60.58195" lon="7.50278">
        <ele>1234.47</ele>
        <time>2019-04-08T15:44:02Z</time>
      </trkpt>
      <trkpt lat="60.58195" lon="7.5028">
        <ele>1241.68</ele>
        <time>2019-04-08T15:44:04Z</time>
      </trkpt>
      <trkpt lat="60.58195" lon="7.50277">
        <ele>1237.35</ele>
        <time>2019-04-08T15:44:05Z</time>
      </trkpt>
      <trkpt lat="60.58194" lon="7.50273">
        <ele>1235.43</ele>
        <time>2019-04-08T15:44:19Z</time>
      </trkpt>
      <trkpt lat="60.58192" lon="7.50274">
        <ele>1239.28</ele>
        <time>2019-04-08T15:44:21Z</time>
      </trkpt>
      <trkpt lat="60.58193" lon="7.50274">
        <ele>1236.87</ele>
        <time>2019-04-08T15:44:22Z</time>
      </trkpt>
      <trkpt lat="60.58193" lon="7.50279">
        <ele>1247.45</ele>
        <time>2019-04-08T15:44:24Z</time>
      </trkpt>
      <trkpt lat="60.58193" lon="7.50284">
        <ele>1238.32</ele>
        <time>2019-04-08T15:44:25Z</time>
      </trkpt>
      <trkpt lat="60.58194" lon="7.50276">
        <ele>1237.83</ele>
        <time>2019-04-08T15:44:41Z</time>
      </trkpt>
      <trkpt lat="60.58194" lon="7.50275">
        <ele>1237.83</ele>
        <time>2019-04-08T15:45:06Z</time>
      </trkpt>
      <trkpt lat="60.58195" lon="7.50274">
        <ele>1238.32</ele>
        <time>2019-04-08T15:45:26Z</time>
      </trkpt>
      <trkpt lat="60.58195" lon="7.50275">
        <ele>1245.04</ele>
        <time>2019-04-08T15:45:34Z</time>
      </trkpt>
      <trkpt lat="60.58196" lon="7.50277">
        <ele>1238.32</ele>
        <time>2019-04-08T15:45:35Z</time>
      </trkpt>
      <trkpt lat="60.58195" lon="7.50274">
        <ele>1238.8</ele>
        <time>2019-04-08T15:45:57Z</time>
      </trkpt>
      <trkpt lat="60.58196" lon="7.50277">
        <ele>1244.08</ele>
        <time>2019-04-08T15:46:13Z</time>
      </trkpt>
      <trkpt lat="60.58196" lon="7.50281">
        <ele>1238.8</ele>
        <time>2019-04-08T15:46:14Z</time>
      </trkpt>
      <trkpt lat="60.58196" lon="7.50274">
        <ele>1235.91</ele>
        <time>2019-04-08T15:46:20Z</time>
      </trkpt>
      <trkpt lat="60.58196" lon="7.50266">
        <ele>1238.8</ele>
        <time>2019-04-08T15:46:22Z</time>
      </trkpt>
      <trkpt lat="60.58196" lon="7.50263">
        <ele>1229.66</ele>
        <time>2019-04-08T15:46:23Z</time>
      </trkpt>
      <trkpt lat="60.58196" lon="7.50258">
        <ele>1237.35</ele>
        <time>2019-04-08T15:46:24Z</time>
      </trkpt>
      <trkpt lat="60.58197" lon="7.5025">
        <ele>1239.28</ele>
        <time>2019-04-08T15:46:26Z</time>
      </trkpt>
      <trkpt lat="60.58195" lon="7.50269">
        <ele>1239.28</ele>
        <time>2019-04-08T15:46:40Z</time>
      </trkpt>
      <trkpt lat="60.58193" lon="7.50266">
        <ele>1237.35</ele>
        <time>2019-04-08T15:46:42Z</time>
      </trkpt>
      <trkpt lat="60.58194" lon="7.50267">
        <ele>1241.2</ele>
        <time>2019-04-08T15:46:43Z</time>
      </trkpt>
      <trkpt lat="60.58194" lon="7.50268">
        <ele>1239.76</ele>
        <time>2019-04-08T15:46:44Z</time>
      </trkpt>
      <trkpt lat="60.58194" lon="7.50269">
        <ele>1236.39</ele>
        <time>2019-04-08T15:46:47Z</time>
      </trkpt>
      <trkpt lat="60.58194" lon="7.50269">
        <ele>1239.76</ele>
        <time>2019-04-08T15:46:48Z</time>
      </trkpt>
      <trkpt lat="60.58194" lon="7.50269">
        <ele>1239.76</ele>
        <time>2019-04-08T15:46:49Z</time>
      </trkpt>
      <trkpt lat="60.58194" lon="7.50273">
        <ele>1247.45</ele>
        <time>2019-04-08T15:46:54Z</time>
      </trkpt>
      <trkpt lat="60.58195" lon="7.50276">
        <ele>1239.28</ele>
        <time>2019-04-08T15:46:55Z</time>
      </trkpt>
      <trkpt lat="60.582" lon="7.50271">
        <ele>1239.28</ele>
        <time>2019-04-08T15:47:09Z</time>
      </trkpt>
      <trkpt lat="60.58206" lon="7.50264">
        <ele>1239.28</ele>
        <time>2019-04-08T15:47:21Z</time>
      </trkpt>
      <trkpt lat="60.58208" lon="7.50261">
        <ele>1240.72</ele>
        <time>2019-04-08T15:47:24Z</time>
      </trkpt>
      <trkpt lat="60.58223" lon="7.50248">
        <ele>1241.68</ele>
        <time>2019-04-08T15:47:41Z</time>
      </trkpt>
      <trkpt lat="60.58232" lon="7.50242">
        <ele>1241.68</ele>
        <time>2019-04-08T15:47:56Z</time>
      </trkpt>
      <trkpt lat="60.58234" lon="7.50241">
        <ele>1242.64</ele>
        <time>2019-04-08T15:47:58Z</time>
      </trkpt>
      <trkpt lat="60.5825" lon="7.50231">
        <ele>1243.6</ele>
        <time>2019-04-08T15:48:14Z</time>
      </trkpt>
      <trkpt lat="60.58268" lon="7.5022">
        <ele>1244.56</ele>
        <time>2019-04-08T15:48:31Z</time>
      </trkpt>
      <trkpt lat="60.58287" lon="7.50208">
        <ele>1245.53</ele>
        <time>2019-04-08T15:48:49Z</time>
      </trkpt>
      <trkpt lat="60.58305" lon="7.50196">
        <ele>1246.01</ele>
        <time>2019-04-08T15:49:05Z</time>
      </trkpt>
      <trkpt lat="60.5832" lon="7.50178">
        <ele>1245.04</ele>
        <time>2019-04-08T15:49:21Z</time>
      </trkpt>
      <trkpt lat="60.58336" lon="7.50161">
        <ele>1245.04</ele>
        <time>2019-04-08T15:49:36Z</time>
      </trkpt>
      <trkpt lat="60.58353" lon="7.50144">
        <ele>1246.01</ele>
        <time>2019-04-08T15:49:52Z</time>
      </trkpt>
      <trkpt lat="60.58354" lon="7.50143">
        <ele>1246.01</ele>
        <time>2019-04-08T15:49:53Z</time>
      </trkpt>
      <trkpt lat="60.58369" lon="7.50128">
        <ele>1246.97</ele>
        <time>2019-04-08T15:50:09Z</time>
      </trkpt>
      <trkpt lat="60.58382" lon="7.50116">
        <ele>1249.37</ele>
        <time>2019-04-08T15:50:24Z</time>
      </trkpt>
      <trkpt lat="60.584" lon="7.50115">
        <ele>1249.37</ele>
        <time>2019-04-08T15:50:40Z</time>
      </trkpt>
      <trkpt lat="60.58403" lon="7.50113">
        <ele>1249.37</ele>
        <time>2019-04-08T15:50:53Z</time>
      </trkpt>
      <trkpt lat="60.58414" lon="7.50118">
        <ele>1249.37</ele>
        <time>2019-04-08T15:51:04Z</time>
      </trkpt>
      <trkpt lat="60.5843" lon="7.50126">
        <ele>1249.85</ele>
        <time>2019-04-08T15:51:18Z</time>
      </trkpt>
      <trkpt lat="60.58449" lon="7.50137">
        <ele>1249.85</ele>
        <time>2019-04-08T15:51:33Z</time>
      </trkpt>
      <trkpt lat="60.58465" lon="7.50148">
        <ele>1250.81</ele>
        <time>2019-04-08T15:51:48Z</time>
      </trkpt>
      <trkpt lat="60.58481" lon="7.50161">
        <ele>1251.77</ele>
        <time>2019-04-08T15:52:02Z</time>
      </trkpt>
      <trkpt lat="60.58498" lon="7.50175">
        <ele>1252.25</ele>
        <time>2019-04-08T15:52:17Z</time>
      </trkpt>
      <trkpt lat="60.58515" lon="7.50184">
        <ele>1252.74</ele>
        <time>2019-04-08T15:52:30Z</time>
      </trkpt>
      <trkpt lat="60.58528" lon="7.5019">
        <ele>1251.29</ele>
        <time>2019-04-08T15:52:40Z</time>
      </trkpt>
      <trkpt lat="60.58545" lon="7.50196">
        <ele>1251.29</ele>
        <time>2019-04-08T15:52:54Z</time>
      </trkpt>
      <trkpt lat="60.58559" lon="7.50205">
        <ele>1253.22</ele>
        <time>2019-04-08T15:53:08Z</time>
      </trkpt>
      <trkpt lat="60.58564" lon="7.50208">
        <ele>1251.77</ele>
        <time>2019-04-08T15:53:11Z</time>
      </trkpt>
      <trkpt lat="60.58584" lon="7.50224">
        <ele>1250.33</ele>
        <time>2019-04-08T15:53:26Z</time>
      </trkpt>
      <trkpt lat="60.58594" lon="7.50229">
        <ele>1251.77</ele>
        <time>2019-04-08T15:53:38Z</time>
      </trkpt>
      <trkpt lat="60.586" lon="7.50234">
        <ele>1252.74</ele>
        <time>2019-04-08T15:53:52Z</time>
      </trkpt>
      <trkpt lat="60.58607" lon="7.50242">
        <ele>1253.7</ele>
        <time>2019-04-08T15:54:09Z</time>
      </trkpt>
      <trkpt lat="60.58621" lon="7.50256">
        <ele>1254.18</ele>
        <time>2019-04-08T15:54:23Z</time>
      </trkpt>
      <trkpt lat="60.58638" lon="7.50281">
        <ele>1254.18</ele>
        <time>2019-04-08T15:54:41Z</time>
      </trkpt>
      <trkpt lat="60.58654" lon="7.50295">
        <ele>1254.66</ele>
        <time>2019-04-08T15:54:58Z</time>
      </trkpt>
      <trkpt lat="60.58668" lon="7.50312">
        <ele>1253.7</ele>
        <time>2019-04-08T15:55:11Z</time>
      </trkpt>
      <trkpt lat="60.58687" lon="7.50327">
        <ele>1253.22</ele>
        <time>2019-04-08T15:55:29Z</time>
      </trkpt>
      <trkpt lat="60.58704" lon="7.50344">
        <ele>1252.25</ele>
        <time>2019-04-08T15:55:42Z</time>
      </trkpt>
      <trkpt lat="60.58721" lon="7.50354">
        <ele>1249.85</ele>
        <time>2019-04-08T15:55:55Z</time>
      </trkpt>
      <trkpt lat="60.58739" lon="7.5038">
        <ele>1247.93</ele>
        <time>2019-04-08T15:56:09Z</time>
      </trkpt>
      <trkpt lat="60.58758" lon="7.50393">
        <ele>1246.01</ele>
        <time>2019-04-08T15:56:20Z</time>
      </trkpt>
      <trkpt lat="60.58778" lon="7.50406">
        <ele>1242.16</ele>
        <time>2019-04-08T15:56:32Z</time>
      </trkpt>
      <trkpt lat="60.5878" lon="7.50407">
        <ele>1242.16</ele>
        <time>2019-04-08T15:56:33Z</time>
      </trkpt>
      <trkpt lat="60.58795" lon="7.50417">
        <ele>1241.2</ele>
        <time>2019-04-08T15:56:44Z</time>
      </trkpt>
      <trkpt lat="60.58817" lon="7.50429">
        <ele>1237.83</ele>
        <time>2019-04-08T15:56:58Z</time>
      </trkpt>
      <trkpt lat="60.58834" lon="7.50438">
        <ele>1237.35</ele>
        <time>2019-04-08T15:57:10Z</time>
      </trkpt>
      <trkpt lat="60.58856" lon="7.50447">
        <ele>1236.39</ele>
        <time>2019-04-08T15:57:26Z</time>
      </trkpt>
      <trkpt lat="60.5888" lon="7.50456">
        <ele>1233.99</ele>
        <time>2019-04-08T15:57:42Z</time>
      </trkpt>
      <trkpt lat="60.58902" lon="7.5046">
        <ele>1233.03</ele>
        <time>2019-04-08T15:57:59Z</time>
      </trkpt>
      <trkpt lat="60.58929" lon="7.50468">
        <ele>1231.11</ele>
        <time>2019-04-08T15:58:18Z</time>
      </trkpt>
      <trkpt lat="60.58952" lon="7.5048">
        <ele>1229.66</ele>
        <time>2019-04-08T15:58:35Z</time>
      </trkpt>
      <trkpt lat="60.58969" lon="7.50493">
        <ele>1228.22</ele>
        <time>2019-04-08T15:58:50Z</time>
      </trkpt>
      <trkpt lat="60.58988" lon="7.50501">
        <ele>1227.26</ele>
        <time>2019-04-08T15:59:05Z</time>
      </trkpt>
      <trkpt lat="60.59005" lon="7.50511">
        <ele>1226.3</ele>
        <time>2019-04-08T15:59:20Z</time>
      </trkpt>
      <trkpt lat="60.59016" lon="7.5052">
        <ele>1224.86</ele>
        <time>2019-04-08T15:59:27Z</time>
      </trkpt>
      <trkpt lat="60.5905" lon="7.50535">
        <ele>1221.97</ele>
        <time>2019-04-08T15:59:44Z</time>
      </trkpt>
      <trkpt lat="60.59075" lon="7.50549">
        <ele>1218.61</ele>
        <time>2019-04-08T15:59:57Z</time>
      </trkpt>
      <trkpt lat="60.59104" lon="7.50563">
        <ele>1215.72</ele>
        <time>2019-04-08T16:00:13Z</time>
      </trkpt>
      <trkpt lat="60.59134" lon="7.50577">
        <ele>1213.32</ele>
        <time>2019-04-08T16:00:32Z</time>
      </trkpt>
      <trkpt lat="60.59155" lon="7.50582">
        <ele>1212.84</ele>
        <time>2019-04-08T16:00:48Z</time>
      </trkpt>
      <trkpt lat="60.59177" lon="7.50591">
        <ele>1212.36</ele>
        <time>2019-04-08T16:01:06Z</time>
      </trkpt>
      <trkpt lat="60.59196" lon="7.50601">
        <ele>1212.36</ele>
        <time>2019-04-08T16:01:22Z</time>
      </trkpt>
      <trkpt lat="60.59212" lon="7.50608">
        <ele>1212.36</ele>
        <time>2019-04-08T16:01:37Z</time>
      </trkpt>
      <trkpt lat="60.59216" lon="7.5061">
        <ele>1213.8</ele>
        <time>2019-04-08T16:01:41Z</time>
      </trkpt>
      <trkpt lat="60.59234" lon="7.50613">
        <ele>1214.28</ele>
        <time>2019-04-08T16:01:57Z</time>
      </trkpt>
      <trkpt lat="60.59253" lon="7.5062">
        <ele>1214.28</ele>
        <time>2019-04-08T16:02:13Z</time>
      </trkpt>
      <trkpt lat="60.59272" lon="7.50632">
        <ele>1214.28</ele>
        <time>2019-04-08T16:02:30Z</time>
      </trkpt>
      <trkpt lat="60.59287" lon="7.50637">
        <ele>1214.76</ele>
        <time>2019-04-08T16:02:44Z</time>
      </trkpt>
      <trkpt lat="60.59308" lon="7.50657">
        <ele>1211.4</ele>
        <time>2019-04-08T16:02:56Z</time>
      </trkpt>
      <trkpt lat="60.59321" lon="7.50663">
        <ele>1207.07</ele>
        <time>2019-04-08T16:02:59Z</time>
      </trkpt>
      <trkpt lat="60.59326" lon="7.50666">
        <ele>1207.07</ele>
        <time>2019-04-08T16:03:00Z</time>
      </trkpt>
      <trkpt lat="60.5934" lon="7.50674">
        <ele>1206.59</ele>
        <time>2019-04-08T16:03:10Z</time>
      </trkpt>
      <trkpt lat="60.5936" lon="7.5068">
        <ele>1206.59</ele>
        <time>2019-04-08T16:03:26Z</time>
      </trkpt>
      <trkpt lat="60.59377" lon="7.50688">
        <ele>1206.59</ele>
        <time>2019-04-08T16:03:42Z</time>
      </trkpt>
      <trkpt lat="60.59396" lon="7.50694">
        <ele>1206.59</ele>
        <time>2019-04-08T16:03:58Z</time>
      </trkpt>
      <trkpt lat="60.59416" lon="7.50702">
        <ele>1206.59</ele>
        <time>2019-04-08T16:04:15Z</time>
      </trkpt>
      <trkpt lat="60.59434" lon="7.50709">
        <ele>1206.59</ele>
        <time>2019-04-08T16:04:31Z</time>
      </trkpt>
      <trkpt lat="60.59451" lon="7.50716">
        <ele>1206.59</ele>
        <time>2019-04-08T16:04:46Z</time>
      </trkpt>
      <trkpt lat="60.59467" lon="7.50725">
        <ele>1206.59</ele>
        <time>2019-04-08T16:05:00Z</time>
      </trkpt>
      <trkpt lat="60.59486" lon="7.5073">
        <ele>1206.59</ele>
        <time>2019-04-08T16:05:17Z</time>
      </trkpt>
      <trkpt lat="60.59503" lon="7.50735">
        <ele>1206.59</ele>
        <time>2019-04-08T16:05:32Z</time>
      </trkpt>
      <trkpt lat="60.59522" lon="7.5074">
        <ele>1206.59</ele>
        <time>2019-04-08T16:05:49Z</time>
      </trkpt>
      <trkpt lat="60.59543" lon="7.50746">
        <ele>1206.59</ele>
        <time>2019-04-08T16:06:08Z</time>
      </trkpt>
      <trkpt lat="60.59562" lon="7.5075">
        <ele>1206.59</ele>
        <time>2019-04-08T16:06:24Z</time>
      </trkpt>
      <trkpt lat="60.5958" lon="7.50758">
        <ele>1207.07</ele>
        <time>2019-04-08T16:06:40Z</time>
      </trkpt>
      <trkpt lat="60.596" lon="7.50769">
        <ele>1207.07</ele>
        <time>2019-04-08T16:06:58Z</time>
      </trkpt>
      <trkpt lat="60.59619" lon="7.50773">
        <ele>1207.07</ele>
        <time>2019-04-08T16:07:14Z</time>
      </trkpt>
      <trkpt lat="60.59635" lon="7.50775">
        <ele>1207.07</ele>
        <time>2019-04-08T16:07:28Z</time>
      </trkpt>
      <trkpt lat="60.59653" lon="7.50778">
        <ele>1207.07</ele>
        <time>2019-04-08T16:07:44Z</time>
      </trkpt>
      <trkpt lat="60.59657" lon="7.50779">
        <ele>1208.51</ele>
        <time>2019-04-08T16:07:48Z</time>
      </trkpt>
      <trkpt lat="60.59672" lon="7.50784">
        <ele>1209.96</ele>
        <time>2019-04-08T16:08:03Z</time>
      </trkpt>
      <trkpt lat="60.59689" lon="7.50787">
        <ele>1210.92</ele>
        <time>2019-04-08T16:08:19Z</time>
      </trkpt>
      <trkpt lat="60.59705" lon="7.50786">
        <ele>1210.92</ele>
        <time>2019-04-08T16:08:34Z</time>
      </trkpt>
      <trkpt lat="60.59721" lon="7.50788">
        <ele>1211.4</ele>
        <time>2019-04-08T16:08:49Z</time>
      </trkpt>
      <trkpt lat="60.59733" lon="7.50789">
        <ele>1213.8</ele>
        <time>2019-04-08T16:09:04Z</time>
      </trkpt>
      <trkpt lat="60.59747" lon="7.50787">
        <ele>1215.72</ele>
        <time>2019-04-08T16:09:20Z</time>
      </trkpt>
      <trkpt lat="60.59756" lon="7.50785">
        <ele>1216.21</ele>
        <time>2019-04-08T16:09:28Z</time>
      </trkpt>
      <trkpt lat="60.59771" lon="7.5078">
        <ele>1217.17</ele>
        <time>2019-04-08T16:09:42Z</time>
      </trkpt>
      <trkpt lat="60.59784" lon="7.50782">
        <ele>1218.13</ele>
        <time>2019-04-08T16:09:56Z</time>
      </trkpt>
      <trkpt lat="60.59794" lon="7.50775">
        <ele>1218.61</ele>
        <time>2019-04-08T16:10:11Z</time>
      </trkpt>
      <trkpt lat="60.59797" lon="7.50771">
        <ele>1218.61</ele>
        <time>2019-04-08T16:10:14Z</time>
      </trkpt>
      <trkpt lat="60.59803" lon="7.50754">
        <ele>1219.57</ele>
        <time>2019-04-08T16:10:28Z</time>
      </trkpt>
      <trkpt lat="60.59804" lon="7.50753">
        <ele>1219.57</ele>
        <time>2019-04-08T16:10:45Z</time>
      </trkpt>
      <trkpt lat="60.59804" lon="7.50755">
        <ele>1209.48</ele>
        <time>2019-04-08T16:10:56Z</time>
      </trkpt>
      <trkpt lat="60.59803" lon="7.50751">
        <ele>1221.01</ele>
        <time>2019-04-08T16:10:58Z</time>
      </trkpt>
      <trkpt lat="60.59803" lon="7.50749">
        <ele>1225.82</ele>
        <time>2019-04-08T16:10:59Z</time>
      </trkpt>
      <trkpt lat="60.59802" lon="7.50747">
        <ele>1219.57</ele>
        <time>2019-04-08T16:11:00Z</time>
      </trkpt>
      <trkpt lat="60.59803" lon="7.50752">
        <ele>1220.05</ele>
        <time>2019-04-08T16:11:09Z</time>
      </trkpt>
      <trkpt lat="60.59803" lon="7.50754">
        <ele>1218.61</ele>
        <time>2019-04-08T16:11:15Z</time>
      </trkpt>
      <trkpt lat="60.59803" lon="7.50757">
        <ele>1218.13</ele>
        <time>2019-04-08T16:11:50Z</time>
      </trkpt>
      <trkpt lat="60.59804" lon="7.50759">
        <ele>1218.13</ele>
        <time>2019-04-08T16:12:25Z</time>
      </trkpt>
      <trkpt lat="60.59804" lon="7.50758">
        <ele>1218.61</ele>
        <time>2019-04-08T16:12:58Z</time>
      </trkpt>
      <trkpt lat="60.59804" lon="7.50758">
        <ele>1218.61</ele>
        <time>2019-04-08T16:13:33Z</time>
      </trkpt>
      <trkpt lat="60.59804" lon="7.50757">
        <ele>1218.61</ele>
        <time>2019-04-08T16:14:03Z</time>
      </trkpt>
      <trkpt lat="60.59804" lon="7.50758">
        <ele>1219.09</ele>
        <time>2019-04-08T16:14:41Z</time>
      </trkpt>
      <trkpt lat="60.59802" lon="7.50753">
        <ele>1219.09</ele>
        <time>2019-04-08T16:15:09Z</time>
      </trkpt>
      <trkpt lat="60.59802" lon="7.50749">
        <ele>1219.09</ele>
        <time>2019-04-08T16:15:11Z</time>
      </trkpt>
      <trkpt lat="60.59805" lon="7.50749">
        <ele>1218.61</ele>
        <time>2019-04-08T16:15:22Z</time>
      </trkpt>
      <trkpt lat="60.59807" lon="7.5075">
        <ele>1218.61</ele>
        <time>2019-04-08T16:15:54Z</time>
      </trkpt>
      <trkpt lat="60.59807" lon="7.50749">
        <ele>1220.05</ele>
        <time>2019-04-08T16:16:13Z</time>
      </trkpt>
      <trkpt lat="60.59807" lon="7.5075">
        <ele>1220.05</ele>
        <time>2019-04-08T16:16:46Z</time>
      </trkpt>
      <trkpt lat="60.59806" lon="7.50749">
        <ele>1220.53</ele>
        <time>2019-04-08T16:17:17Z</time>
      </trkpt>
      <trkpt lat="60.59805" lon="7.50748">
        <ele>1220.53</ele>
        <time>2019-04-08T16:18:01Z</time>
      </trkpt>
      <trkpt lat="60.59805" lon="7.5075">
        <ele>1220.53</ele>
        <time>2019-04-08T16:18:45Z</time>
      </trkpt>
      <trkpt lat="60.59805" lon="7.50748">
        <ele>1221.49</ele>
        <time>2019-04-08T16:18:55Z</time>
      </trkpt>
      <trkpt lat="60.59803" lon="7.50746">
        <ele>1221.49</ele>
        <time>2019-04-08T16:19:03Z</time>
      </trkpt>
      <trkpt lat="60.598" lon="7.5073">
        <ele>1221.97</ele>
        <time>2019-04-08T16:19:16Z</time>
      </trkpt>
      <trkpt lat="60.59802" lon="7.50729">
        <ele>1221.97</ele>
        <time>2019-04-08T16:19:35Z</time>
      </trkpt>
      <trkpt lat="60.59798" lon="7.50727">
        <ele>1221.97</ele>
        <time>2019-04-08T16:20:08Z</time>
      </trkpt>
      <trkpt lat="60.59798" lon="7.50724">
        <ele>1221.97</ele>
        <time>2019-04-08T16:20:34Z</time>
      </trkpt>
      <trkpt lat="60.598" lon="7.50726">
        <ele>1221.97</ele>
        <time>2019-04-08T16:21:00Z</time>
      </trkpt>
      <trkpt lat="60.59799" lon="7.50726">
        <ele>1222.45</ele>
        <time>2019-04-08T16:21:25Z</time>
      </trkpt>
      <trkpt lat="60.598" lon="7.50727">
        <ele>1222.45</ele>
        <time>2019-04-08T16:21:49Z</time>
      </trkpt>
      <trkpt lat="60.59798" lon="7.50726">
        <ele>1222.45</ele>
        <time>2019-04-08T16:22:11Z</time>
      </trkpt>
      <trkpt lat="60.59798" lon="7.50725">
        <ele>1222.45</ele>
        <time>2019-04-08T16:22:32Z</time>
      </trkpt>
      <trkpt lat="60.59798" lon="7.50723">
        <ele>1223.9</ele>
        <time>2019-04-08T16:22:34Z</time>
      </trkpt>
      <trkpt lat="60.59798" lon="7.5072">
        <ele>1222.93</ele>
        <time>2019-04-08T16:22:39Z</time>
      </trkpt>
      <trkpt lat="60.59796" lon="7.50719">
        <ele>1222.93</ele>
        <time>2019-04-08T16:22:53Z</time>
      </trkpt>
      <trkpt lat="60.59796" lon="7.50718">
        <ele>1222.93</ele>
        <time>2019-04-08T16:23:28Z</time>
      </trkpt>
      <trkpt lat="60.59794" lon="7.50721">
        <ele>1223.9</ele>
        <time>2019-04-08T16:23:40Z</time>
      </trkpt>
      <trkpt lat="60.59793" lon="7.50712">
        <ele>1222.93</ele>
        <time>2019-04-08T16:24:07Z</time>
      </trkpt>
      <trkpt lat="60.59795" lon="7.50726">
        <ele>1222.93</ele>
        <time>2019-04-08T16:24:42Z</time>
      </trkpt>
      <trkpt lat="60.59795" lon="7.50726">
        <ele>1224.38</ele>
        <time>2019-04-08T16:24:55Z</time>
      </trkpt>
    </trkseg>
  </trk>
</gpx>